<?xml version="1.0" encoding="utf-8"?>
<gpx xmlns:tc2="http://www.garmin.com/xmlschemas/TrainingCenterDatabase/v2" xmlns:xsi="http://www.w3.org/2001/XMLSchema-instance" xmlns:tp1="http://www.garmin.com/xmlschemas/TrackPointExtension/v1" xmlns="http://www.topografix.com/GPX/1/1" version="1.1" creator="TC2 to GPX11 XSLT stylesheet" xsi:schemaLocation="http://www.topografix.com/GPX/1/1 http://www.topografix.com/GPX/1/1/gpx.xsd http://www.garmin.com/xmlschemas/TrackPointExtension/v1 http://www.garmin.com/xmlschemas/TrackPointExtensionv1.xsd">
<trk>
<name>104_umTagebau</name>
<trkseg>
<trkpt lat="51.2230512" lon="6.5860508">
<ele>0.0000000</ele>
<time>2009-09-02T18:15:43Z</time>
</trkpt>
<trkpt lat="51.2226201" lon="6.5858863">
<ele>0.0000000</ele>
<time>2009-09-02T18:16:01Z</time>
</trkpt>
<trkpt lat="51.2229973" lon="6.5851625">
<ele>0.0000000</ele>
<time>2009-09-02T18:16:24Z</time>
</trkpt>
<trkpt lat="51.2229973" lon="6.5850639">
<ele>0.0000000</ele>
<time>2009-09-02T18:16:27Z</time>
</trkpt>
<trkpt lat="51.2222967" lon="6.5847019">
<ele>0.0000000</ele>
<time>2009-09-02T18:16:56Z</time>
</trkpt>
<trkpt lat="51.2221889" lon="6.5847019">
<ele>0.0000000</ele>
<time>2009-09-02T18:17:00Z</time>
</trkpt>
<trkpt lat="51.2216768" lon="6.5845375">
<ele>0.0000000</ele>
<time>2009-09-02T18:17:21Z</time>
</trkpt>
<trkpt lat="51.2214343" lon="6.5848665">
<ele>0.0000000</ele>
<time>2009-09-02T18:17:34Z</time>
</trkpt>
<trkpt lat="51.2214074" lon="6.5848665">
<ele>0.0000000</ele>
<time>2009-09-02T18:17:35Z</time>
</trkpt>
<trkpt lat="51.2209761" lon="6.5868404">
<ele>0.0000000</ele>
<time>2009-09-02T18:18:28Z</time>
</trkpt>
<trkpt lat="51.2197903" lon="6.5869391">
<ele>0.0000000</ele>
<time>2009-09-02T18:19:15Z</time>
</trkpt>
<trkpt lat="51.2197634" lon="6.5869391">
<ele>0.0000000</ele>
<time>2009-09-02T18:19:16Z</time>
</trkpt>
<trkpt lat="51.2189819" lon="6.5873668">
<ele>0.0000000</ele>
<time>2009-09-02T18:19:49Z</time>
</trkpt>
<trkpt lat="51.2174996" lon="6.5881235">
<ele>0.0000000</ele>
<time>2009-09-02T18:20:52Z</time>
</trkpt>
<trkpt lat="51.2171763" lon="6.5875313">
<ele>0.0000000</ele>
<time>2009-09-02T18:21:11Z</time>
</trkpt>
<trkpt lat="51.2171763" lon="6.5874655">
<ele>0.0000000</ele>
<time>2009-09-02T18:21:13Z</time>
</trkpt>
<trkpt lat="51.2164755" lon="6.5867417">
<ele>0.0000000</ele>
<time>2009-09-02T18:21:46Z</time>
</trkpt>
<trkpt lat="51.2164486" lon="6.5867417">
<ele>0.0000000</ele>
<time>2009-09-02T18:21:47Z</time>
</trkpt>
<trkpt lat="51.2161522" lon="6.5857547">
<ele>0.0000000</ele>
<time>2009-09-02T18:22:15Z</time>
</trkpt>
<trkpt lat="51.2151012" lon="6.5829254">
<ele>0.0000000</ele>
<time>2009-09-02T18:23:37Z</time>
</trkpt>
<trkpt lat="51.2141848" lon="6.5822345">
<ele>0.0000000</ele>
<time>2009-09-02T18:24:18Z</time>
</trkpt>
<trkpt lat="51.2141309" lon="6.5822345">
<ele>0.0000000</ele>
<time>2009-09-02T18:24:20Z</time>
</trkpt>
<trkpt lat="51.2138076" lon="6.5811488">
<ele>0.0000000</ele>
<time>2009-09-02T18:24:50Z</time>
</trkpt>
<trkpt lat="51.2138076" lon="6.5811159">
<ele>0.0000000</ele>
<time>2009-09-02T18:24:51Z</time>
</trkpt>
<trkpt lat="51.2142926" lon="6.5789775">
<ele>0.0000000</ele>
<time>2009-09-02T18:25:48Z</time>
</trkpt>
<trkpt lat="51.2150203" lon="6.5767074">
<ele>0.0000000</ele>
<time>2009-09-02T18:26:52Z</time>
</trkpt>
<trkpt lat="51.2147778" lon="6.5763126">
<ele>0.0000000</ele>
<time>2009-09-02T18:27:06Z</time>
</trkpt>
<trkpt lat="51.2142657" lon="6.5761153">
<ele>0.0000000</ele>
<time>2009-09-02T18:27:27Z</time>
</trkpt>
<trkpt lat="51.2142387" lon="6.5760823">
<ele>0.0000000</ele>
<time>2009-09-02T18:27:28Z</time>
</trkpt>
<trkpt lat="51.2134303" lon="6.5754243">
<ele>0.0000000</ele>
<time>2009-09-02T18:28:05Z</time>
</trkpt>
<trkpt lat="51.2128374" lon="6.5752927">
<ele>0.0000000</ele>
<time>2009-09-02T18:28:29Z</time>
</trkpt>
<trkpt lat="51.2122174" lon="6.5750295">
<ele>0.0000000</ele>
<time>2009-09-02T18:28:54Z</time>
</trkpt>
<trkpt lat="51.2116246" lon="6.5743058">
<ele>0.0000000</ele>
<time>2009-09-02T18:29:24Z</time>
</trkpt>
<trkpt lat="51.2111394" lon="6.5738452">
<ele>0.0000000</ele>
<time>2009-09-02T18:29:47Z</time>
</trkpt>
<trkpt lat="51.2104388" lon="6.5734175">
<ele>0.0000000</ele>
<time>2009-09-02T18:30:17Z</time>
</trkpt>
<trkpt lat="51.2104118" lon="6.5733517">
<ele>0.0000000</ele>
<time>2009-09-02T18:30:19Z</time>
</trkpt>
<trkpt lat="51.2090913" lon="6.5730556">
<ele>0.0000000</ele>
<time>2009-09-02T18:31:12Z</time>
</trkpt>
<trkpt lat="51.2090104" lon="6.5730556">
<ele>0.0000000</ele>
<time>2009-09-02T18:31:15Z</time>
</trkpt>
<trkpt lat="51.2090913" lon="6.5720686">
<ele>0.0000000</ele>
<time>2009-09-02T18:31:40Z</time>
</trkpt>
<trkpt lat="51.2090913" lon="6.5720028">
<ele>0.0000000</ele>
<time>2009-09-02T18:31:42Z</time>
</trkpt>
<trkpt lat="51.2089296" lon="6.5710487">
<ele>0.0000000</ele>
<time>2009-09-02T18:32:07Z</time>
</trkpt>
<trkpt lat="51.2089027" lon="6.5710487">
<ele>0.0000000</ele>
<time>2009-09-02T18:32:08Z</time>
</trkpt>
<trkpt lat="51.2087410" lon="6.5698644">
<ele>0.0000000</ele>
<time>2009-09-02T18:32:38Z</time>
</trkpt>
<trkpt lat="51.2082828" lon="6.5680878">
<ele>0.0000000</ele>
<time>2009-09-02T18:33:26Z</time>
</trkpt>
<trkpt lat="51.2082559" lon="6.5680878">
<ele>0.0000000</ele>
<time>2009-09-02T18:33:27Z</time>
</trkpt>
<trkpt lat="51.2075822" lon="6.5657849">
<ele>0.0000000</ele>
<time>2009-09-02T18:34:31Z</time>
</trkpt>
<trkpt lat="51.2068545" lon="6.5634490">
<ele>0.0000000</ele>
<time>2009-09-02T18:35:37Z</time>
</trkpt>
<trkpt lat="51.2068275" lon="6.5634162">
<ele>0.0000000</ele>
<time>2009-09-02T18:35:38Z</time>
</trkpt>
<trkpt lat="51.2062616" lon="6.5621989">
<ele>0.0000000</ele>
<time>2009-09-02T18:36:16Z</time>
</trkpt>
<trkpt lat="51.2059921" lon="6.5605539">
<ele>0.0000000</ele>
<time>2009-09-02T18:36:59Z</time>
</trkpt>
<trkpt lat="51.2051028" lon="6.5617383">
<ele>0.0000000</ele>
<time>2009-09-02T18:37:45Z</time>
</trkpt>
<trkpt lat="51.2042943" lon="6.5627581">
<ele>0.0000000</ele>
<time>2009-09-02T18:38:26Z</time>
</trkpt>
<trkpt lat="51.2027312" lon="6.5649953">
<ele>0.0000000</ele>
<time>2009-09-02T18:39:50Z</time>
</trkpt>
<trkpt lat="51.2027043" lon="6.5650282">
<ele>0.0000000</ele>
<time>2009-09-02T18:39:52Z</time>
</trkpt>
<trkpt lat="51.2011143" lon="6.5676602">
<ele>0.0000000</ele>
<time>2009-09-02T18:41:23Z</time>
</trkpt>
<trkpt lat="51.1997666" lon="6.5697985">
<ele>0.0000000</ele>
<time>2009-09-02T18:42:39Z</time>
</trkpt>
<trkpt lat="51.1989582" lon="6.5709171">
<ele>0.0000000</ele>
<time>2009-09-02T18:43:22Z</time>
</trkpt>
<trkpt lat="51.1979610" lon="6.5718712">
<ele>0.0000000</ele>
<time>2009-09-02T18:44:09Z</time>
</trkpt>
<trkpt lat="51.1962632" lon="6.5728253">
<ele>0.0000000</ele>
<time>2009-09-02T18:45:21Z</time>
</trkpt>
<trkpt lat="51.1962363" lon="6.5728253">
<ele>0.0000000</ele>
<time>2009-09-02T18:45:22Z</time>
</trkpt>
<trkpt lat="51.1945115" lon="6.5734503">
<ele>0.0000000</ele>
<time>2009-09-02T18:46:33Z</time>
</trkpt>
<trkpt lat="51.1918974" lon="6.5736477">
<ele>0.0000000</ele>
<time>2009-09-02T18:48:17Z</time>
</trkpt>
<trkpt lat="51.1918705" lon="6.5736477">
<ele>0.0000000</ele>
<time>2009-09-02T18:48:19Z</time>
</trkpt>
<trkpt lat="51.1909003" lon="6.5739767">
<ele>0.0000000</ele>
<time>2009-09-02T18:48:58Z</time>
</trkpt>
<trkpt lat="51.1887174" lon="6.5750295">
<ele>0.0000000</ele>
<time>2009-09-02T18:50:30Z</time>
</trkpt>
<trkpt lat="51.1881245" lon="6.5756216">
<ele>0.0000000</ele>
<time>2009-09-02T18:50:58Z</time>
</trkpt>
<trkpt lat="51.1845671" lon="6.5794050">
<ele>0.0000000</ele>
<time>2009-09-02T18:53:49Z</time>
</trkpt>
<trkpt lat="51.1740297" lon="6.5903275">
<ele>0.0000000</ele>
<time>2009-09-02T19:02:12Z</time>
</trkpt>
<trkpt lat="51.1722511" lon="6.5920712">
<ele>0.0000000</ele>
<time>2009-09-02T19:03:35Z</time>
</trkpt>
<trkpt lat="51.1716580" lon="6.5924989">
<ele>0.0000000</ele>
<time>2009-09-02T19:04:01Z</time>
</trkpt>
<trkpt lat="51.1693673" lon="6.5934529">
<ele>0.0000000</ele>
<time>2009-09-02T19:05:36Z</time>
</trkpt>
<trkpt lat="51.1693134" lon="6.5934529">
<ele>0.0000000</ele>
<time>2009-09-02T19:05:38Z</time>
</trkpt>
<trkpt lat="51.1676965" lon="6.5936174">
<ele>0.0000000</ele>
<time>2009-09-02T19:06:43Z</time>
</trkpt>
<trkpt lat="51.1575093" lon="6.5931239">
<ele>0.0000000</ele>
<time>2009-09-02T19:13:31Z</time>
</trkpt>
<trkpt lat="51.1575093" lon="6.5930910">
<ele>0.0000000</ele>
<time>2009-09-02T19:13:32Z</time>
</trkpt>
<trkpt lat="51.1548414" lon="6.5932555">
<ele>0.0000000</ele>
<time>2009-09-02T19:15:19Z</time>
</trkpt>
<trkpt lat="51.1547336" lon="6.5932555">
<ele>0.0000000</ele>
<time>2009-09-02T19:15:23Z</time>
</trkpt>
<trkpt lat="51.1531974" lon="6.5936832">
<ele>0.0000000</ele>
<time>2009-09-02T19:16:26Z</time>
</trkpt>
<trkpt lat="51.1531705" lon="6.5936832">
<ele>0.0000000</ele>
<time>2009-09-02T19:16:27Z</time>
</trkpt>
<trkpt lat="51.1522541" lon="6.5943083">
<ele>0.0000000</ele>
<time>2009-09-02T19:17:07Z</time>
</trkpt>
<trkpt lat="51.1504485" lon="6.5958216">
<ele>0.0000000</ele>
<time>2009-09-02T19:18:28Z</time>
</trkpt>
<trkpt lat="51.1480230" lon="6.5988813">
<ele>0.0000000</ele>
<time>2009-09-02T19:20:32Z</time>
</trkpt>
<trkpt lat="51.1478614" lon="6.5990458">
<ele>0.0000000</ele>
<time>2009-09-02T19:20:40Z</time>
</trkpt>
<trkpt lat="51.1446813" lon="6.6032569">
<ele>0.0000000</ele>
<time>2009-09-02T19:23:25Z</time>
</trkpt>
<trkpt lat="51.1427948" lon="6.6065797">
<ele>0.0000000</ele>
<time>2009-09-02T19:25:18Z</time>
</trkpt>
<trkpt lat="51.1425254" lon="6.6073035">
<ele>0.0000000</ele>
<time>2009-09-02T19:25:39Z</time>
</trkpt>
<trkpt lat="51.1415013" lon="6.6101328">
<ele>0.0000000</ele>
<time>2009-09-02T19:27:01Z</time>
</trkpt>
<trkpt lat="51.1399381" lon="6.6155610">
<ele>0.0000000</ele>
<time>2009-09-02T19:29:31Z</time>
</trkpt>
<trkpt lat="51.1390758" lon="6.6187194">
<ele>0.0000000</ele>
<time>2009-09-02T19:30:57Z</time>
</trkpt>
<trkpt lat="51.1382134" lon="6.6213842">
<ele>0.0000000</ele>
<time>2009-09-02T19:32:13Z</time>
</trkpt>
<trkpt lat="51.1364077" lon="6.6262861">
<ele>0.0000000</ele>
<time>2009-09-02T19:34:36Z</time>
</trkpt>
<trkpt lat="51.1363808" lon="6.6262861">
<ele>0.0000000</ele>
<time>2009-09-02T19:34:37Z</time>
</trkpt>
<trkpt lat="51.1351142" lon="6.6287536">
<ele>0.0000000</ele>
<time>2009-09-02T19:35:57Z</time>
</trkpt>
<trkpt lat="51.1343865" lon="6.6299051">
<ele>0.0000000</ele>
<time>2009-09-02T19:36:38Z</time>
</trkpt>
<trkpt lat="51.1334163" lon="6.6310565">
<ele>0.0000000</ele>
<time>2009-09-02T19:37:26Z</time>
</trkpt>
<trkpt lat="51.1326617" lon="6.6316815">
<ele>0.0000000</ele>
<time>2009-09-02T19:38:00Z</time>
</trkpt>
<trkpt lat="51.1327695" lon="6.6322079">
<ele>0.0000000</ele>
<time>2009-09-02T19:38:14Z</time>
</trkpt>
<trkpt lat="51.1330660" lon="6.6331620">
<ele>0.0000000</ele>
<time>2009-09-02T19:38:41Z</time>
</trkpt>
<trkpt lat="51.1334702" lon="6.6335896">
<ele>0.0000000</ele>
<time>2009-09-02T19:39:00Z</time>
</trkpt>
<trkpt lat="51.1340901" lon="6.6331948">
<ele>0.0000000</ele>
<time>2009-09-02T19:39:27Z</time>
</trkpt>
<trkpt lat="51.1351141" lon="6.6370770">
<ele>0.0000000</ele>
<time>2009-09-02T19:41:13Z</time>
</trkpt>
<trkpt lat="51.1336588" lon="6.6385246">
<ele>0.0000000</ele>
<time>2009-09-02T19:42:21Z</time>
</trkpt>
<trkpt lat="51.1334432" lon="6.6397419">
<ele>0.0000000</ele>
<time>2009-09-02T19:42:53Z</time>
</trkpt>
<trkpt lat="51.1332007" lon="6.6403340">
<ele>0.0000000</ele>
<time>2009-09-02T19:43:11Z</time>
</trkpt>
<trkpt lat="51.1330121" lon="6.6417158">
<ele>0.0000000</ele>
<time>2009-09-02T19:43:46Z</time>
</trkpt>
<trkpt lat="51.1325269" lon="6.6423080">
<ele>0.0000000</ele>
<time>2009-09-02T19:44:11Z</time>
</trkpt>
<trkpt lat="51.1322035" lon="6.6425054">
<ele>0.0000000</ele>
<time>2009-09-02T19:44:25Z</time>
</trkpt>
<trkpt lat="51.1317993" lon="6.6432292">
<ele>0.0000000</ele>
<time>2009-09-02T19:44:49Z</time>
</trkpt>
<trkpt lat="51.1307483" lon="6.6459598">
<ele>0.0000000</ele>
<time>2009-09-02T19:46:10Z</time>
</trkpt>
<trkpt lat="51.1281342" lon="6.6537240">
<ele>0.0000000</ele>
<time>2009-09-02T19:49:51Z</time>
</trkpt>
<trkpt lat="51.1294817" lon="6.6568824">
<ele>0.0000000</ele>
<time>2009-09-02T19:51:27Z</time>
</trkpt>
<trkpt lat="51.1299937" lon="6.6573758">
<ele>0.0000000</ele>
<time>2009-09-02T19:51:51Z</time>
</trkpt>
<trkpt lat="51.1316646" lon="6.6573429">
<ele>0.0000000</ele>
<time>2009-09-02T19:52:58Z</time>
</trkpt>
<trkpt lat="51.1323113" lon="6.6568166">
<ele>0.0000000</ele>
<time>2009-09-02T19:53:27Z</time>
</trkpt>
<trkpt lat="51.1326348" lon="6.6568824">
<ele>0.0000000</ele>
<time>2009-09-02T19:53:40Z</time>
</trkpt>
<trkpt lat="51.1330390" lon="6.6579022">
<ele>0.0000000</ele>
<time>2009-09-02T19:54:10Z</time>
</trkpt>
<trkpt lat="51.1329851" lon="6.6586915">
<ele>0.0000000</ele>
<time>2009-09-02T19:54:30Z</time>
</trkpt>
<trkpt lat="51.1324460" lon="6.6610932">
<ele>0.0000000</ele>
<time>2009-09-02T19:55:34Z</time>
</trkpt>
<trkpt lat="51.1323652" lon="6.6617511">
<ele>0.0000000</ele>
<time>2009-09-02T19:55:51Z</time>
</trkpt>
<trkpt lat="51.1320688" lon="6.6652056">
<ele>0.0000000</ele>
<time>2009-09-02T19:57:19Z</time>
</trkpt>
<trkpt lat="51.1316106" lon="6.6665873">
<ele>0.0000000</ele>
<time>2009-09-02T19:57:58Z</time>
</trkpt>
<trkpt lat="51.1302362" lon="6.6681665">
<ele>0.0000000</ele>
<time>2009-09-02T19:59:06Z</time>
</trkpt>
<trkpt lat="51.1302362" lon="6.6681007">
<ele>0.0000000</ele>
<time>2009-09-02T19:59:07Z</time>
</trkpt>
<trkpt lat="51.1301823" lon="6.6687258">
<ele>0.0000000</ele>
<time>2009-09-02T19:59:23Z</time>
</trkpt>
<trkpt lat="51.1293468" lon="6.6700088">
<ele>0.0000000</ele>
<time>2009-09-02T20:00:10Z</time>
</trkpt>
<trkpt lat="51.1288888" lon="6.6704036">
<ele>0.0000000</ele>
<time>2009-09-02T20:00:31Z</time>
</trkpt>
<trkpt lat="51.1274874" lon="6.6733646">
<ele>0.0000000</ele>
<time>2009-09-02T20:02:04Z</time>
</trkpt>
<trkpt lat="51.1261668" lon="6.6757991">
<ele>0.0000000</ele>
<time>2009-09-02T20:03:25Z</time>
</trkpt>
<trkpt lat="51.1247924" lon="6.6777073">
<ele>0.0000000</ele>
<time>2009-09-02T20:04:37Z</time>
</trkpt>
<trkpt lat="51.1243343" lon="6.6781021">
<ele>0.0000000</ele>
<time>2009-09-02T20:04:58Z</time>
</trkpt>
<trkpt lat="51.1243343" lon="6.6780692">
<ele>0.0000000</ele>
<time>2009-09-02T20:04:59Z</time>
</trkpt>
<trkpt lat="51.1239300" lon="6.6788258">
<ele>0.0000000</ele>
<time>2009-09-02T20:05:24Z</time>
</trkpt>
<trkpt lat="51.1233102" lon="6.6807669">
<ele>0.0000000</ele>
<time>2009-09-02T20:06:19Z</time>
</trkpt>
<trkpt lat="51.1233911" lon="6.6812933">
<ele>0.0000000</ele>
<time>2009-09-02T20:06:32Z</time>
</trkpt>
<trkpt lat="51.1230407" lon="6.6817210">
<ele>0.0000000</ele>
<time>2009-09-02T20:06:50Z</time>
</trkpt>
<trkpt lat="51.1224209" lon="6.6831356">
<ele>0.0000000</ele>
<time>2009-09-02T20:07:33Z</time>
</trkpt>
<trkpt lat="51.1224209" lon="6.6837278">
<ele>0.0000000</ele>
<time>2009-09-02T20:07:48Z</time>
</trkpt>
<trkpt lat="51.1219088" lon="6.6843530">
<ele>0.0000000</ele>
<time>2009-09-02T20:08:14Z</time>
</trkpt>
<trkpt lat="51.1220166" lon="6.6847806">
<ele>0.0000000</ele>
<time>2009-09-02T20:08:26Z</time>
</trkpt>
<trkpt lat="51.1218819" lon="6.6859650">
<ele>0.0000000</ele>
<time>2009-09-02T20:08:56Z</time>
</trkpt>
<trkpt lat="51.1214775" lon="6.6882678">
<ele>0.0000000</ele>
<time>2009-09-02T20:09:56Z</time>
</trkpt>
<trkpt lat="51.1218278" lon="6.6940580">
<ele>0.0000000</ele>
<time>2009-09-02T20:12:22Z</time>
</trkpt>
<trkpt lat="51.1220164" lon="6.6953411">
<ele>0.0000000</ele>
<time>2009-09-02T20:12:55Z</time>
</trkpt>
<trkpt lat="51.1234448" lon="6.7007035">
<ele>0.0000000</ele>
<time>2009-09-02T20:15:22Z</time>
</trkpt>
<trkpt lat="51.1236874" lon="6.7022498">
<ele>0.0000000</ele>
<time>2009-09-02T20:16:02Z</time>
</trkpt>
<trkpt lat="51.1237682" lon="6.7039277">
<ele>0.0000000</ele>
<time>2009-09-02T20:16:44Z</time>
</trkpt>
<trkpt lat="51.1231214" lon="6.7071848">
<ele>0.0000000</ele>
<time>2009-09-02T20:18:10Z</time>
</trkpt>
<trkpt lat="51.1231214" lon="6.7091587">
<ele>0.0000000</ele>
<time>2009-09-02T20:18:59Z</time>
</trkpt>
<trkpt lat="51.1232561" lon="6.7110338">
<ele>0.0000000</ele>
<time>2009-09-02T20:19:47Z</time>
</trkpt>
<trkpt lat="51.1232561" lon="6.7119879">
<ele>0.0000000</ele>
<time>2009-09-02T20:20:11Z</time>
</trkpt>
<trkpt lat="51.1213966" lon="6.7137645">
<ele>0.0000000</ele>
<time>2009-09-02T20:21:38Z</time>
</trkpt>
<trkpt lat="51.1206959" lon="6.7143896">
<ele>0.0000000</ele>
<time>2009-09-02T20:22:10Z</time>
</trkpt>
<trkpt lat="51.1190790" lon="6.7150146">
<ele>0.0000000</ele>
<time>2009-09-02T20:23:16Z</time>
</trkpt>
<trkpt lat="51.1184861" lon="6.7150476">
<ele>0.0000000</ele>
<time>2009-09-02T20:23:40Z</time>
</trkpt>
<trkpt lat="51.1168422" lon="6.7155081">
<ele>0.0000000</ele>
<time>2009-09-02T20:24:47Z</time>
</trkpt>
<trkpt lat="51.1168152" lon="6.7155081">
<ele>0.0000000</ele>
<time>2009-09-02T20:24:48Z</time>
</trkpt>
<trkpt lat="51.1148749" lon="6.7163964">
<ele>0.0000000</ele>
<time>2009-09-02T20:26:09Z</time>
</trkpt>
<trkpt lat="51.1130962" lon="6.7174163">
<ele>0.0000000</ele>
<time>2009-09-02T20:27:25Z</time>
</trkpt>
<trkpt lat="51.1127189" lon="6.7174163">
<ele>0.0000000</ele>
<time>2009-09-02T20:27:40Z</time>
</trkpt>
<trkpt lat="51.1097275" lon="6.7183375">
<ele>0.0000000</ele>
<time>2009-09-02T20:29:42Z</time>
</trkpt>
<trkpt lat="51.1087843" lon="6.7189954">
<ele>0.0000000</ele>
<time>2009-09-02T20:30:23Z</time>
</trkpt>
<trkpt lat="51.1075985" lon="6.7195876">
<ele>0.0000000</ele>
<time>2009-09-02T20:31:13Z</time>
</trkpt>
<trkpt lat="51.1074368" lon="6.7207062">
<ele>0.0000000</ele>
<time>2009-09-02T20:31:41Z</time>
</trkpt>
<trkpt lat="51.1075716" lon="6.7219563">
<ele>0.0000000</ele>
<time>2009-09-02T20:32:13Z</time>
</trkpt>
<trkpt lat="51.1073829" lon="6.7225156">
<ele>0.0000000</ele>
<time>2009-09-02T20:32:29Z</time>
</trkpt>
<trkpt lat="51.1074638" lon="6.7237987">
<ele>0.0000000</ele>
<time>2009-09-02T20:33:02Z</time>
</trkpt>
<trkpt lat="51.1078141" lon="6.7271544">
<ele>0.0000000</ele>
<time>2009-09-02T20:34:27Z</time>
</trkpt>
<trkpt lat="51.1065206" lon="6.7341618">
<ele>0.0000000</ele>
<time>2009-09-02T20:37:31Z</time>
</trkpt>
<trkpt lat="51.1065475" lon="6.7346554">
<ele>0.0000000</ele>
<time>2009-09-02T20:37:43Z</time>
</trkpt>
<trkpt lat="51.1113714" lon="6.7438671">
<ele>0.0000000</ele>
<time>2009-09-02T20:42:45Z</time>
</trkpt>
<trkpt lat="51.1113714" lon="6.7448541">
<ele>0.0000000</ele>
<time>2009-09-02T20:43:09Z</time>
</trkpt>
<trkpt lat="51.1102395" lon="6.7482756">
<ele>0.0000000</ele>
<time>2009-09-02T20:44:47Z</time>
</trkpt>
<trkpt lat="51.1101856" lon="6.7488678">
<ele>0.0000000</ele>
<time>2009-09-02T20:45:02Z</time>
</trkpt>
<trkpt lat="51.1104012" lon="6.7496574">
<ele>0.0000000</ele>
<time>2009-09-02T20:45:23Z</time>
</trkpt>
<trkpt lat="51.1104551" lon="6.7522234">
<ele>0.0000000</ele>
<time>2009-09-02T20:46:28Z</time>
</trkpt>
<trkpt lat="51.1090537" lon="6.7518944">
<ele>0.0000000</ele>
<time>2009-09-02T20:47:25Z</time>
</trkpt>
<trkpt lat="51.1090268" lon="6.7517299">
<ele>0.0000000</ele>
<time>2009-09-02T20:47:29Z</time>
</trkpt>
<trkpt lat="51.1072751" lon="6.7513351">
<ele>0.0000000</ele>
<time>2009-09-02T20:48:40Z</time>
</trkpt>
<trkpt lat="51.1063858" lon="6.7510719">
<ele>0.0000000</ele>
<time>2009-09-02T20:49:16Z</time>
</trkpt>
<trkpt lat="51.1052000" lon="6.7513680">
<ele>0.0000000</ele>
<time>2009-09-02T20:50:04Z</time>
</trkpt>
<trkpt lat="51.1050383" lon="6.7683111">
<ele>0.0000000</ele>
<time>2009-09-02T20:57:10Z</time>
</trkpt>
<trkpt lat="51.1033405" lon="6.7672254">
<ele>0.0000000</ele>
<time>2009-09-02T20:58:23Z</time>
</trkpt>
<trkpt lat="51.1023434" lon="6.7663372">
<ele>0.0000000</ele>
<time>2009-09-02T20:59:09Z</time>
</trkpt>
<trkpt lat="51.1007533" lon="6.7654817">
<ele>0.0000000</ele>
<time>2009-09-02T21:00:16Z</time>
</trkpt>
<trkpt lat="51.0951208" lon="6.7641000">
<ele>0.0000000</ele>
<time>2009-09-02T21:04:04Z</time>
</trkpt>
<trkpt lat="51.0949322" lon="6.7644290">
<ele>0.0000000</ele>
<time>2009-09-02T21:04:15Z</time>
</trkpt>
<trkpt lat="51.0943393" lon="6.7650869">
<ele>0.0000000</ele>
<time>2009-09-02T21:04:44Z</time>
</trkpt>
<trkpt lat="51.0939081" lon="6.7653172">
<ele>0.0000000</ele>
<time>2009-09-02T21:05:02Z</time>
</trkpt>
<trkpt lat="51.0939350" lon="6.7653172">
<ele>0.0000000</ele>
<time>2009-09-02T21:05:04Z</time>
</trkpt>
<trkpt lat="51.0928032" lon="6.7655804">
<ele>0.0000000</ele>
<time>2009-09-02T21:05:49Z</time>
</trkpt>
<trkpt lat="51.0918599" lon="6.7662384">
<ele>0.0000000</ele>
<time>2009-09-02T21:06:31Z</time>
</trkpt>
<trkpt lat="51.0902158" lon="6.7671594">
<ele>0.0000000</ele>
<time>2009-09-02T21:07:40Z</time>
</trkpt>
<trkpt lat="51.0819154" lon="6.7723576">
<ele>0.0000000</ele>
<time>2009-09-02T21:13:37Z</time>
</trkpt>
<trkpt lat="51.0814842" lon="6.7728510">
<ele>0.0000000</ele>
<time>2009-09-02T21:13:59Z</time>
</trkpt>
<trkpt lat="51.0814572" lon="6.7728510">
<ele>0.0000000</ele>
<time>2009-09-02T21:14:00Z</time>
</trkpt>
<trkpt lat="51.0803792" lon="6.7737723">
<ele>0.0000000</ele>
<time>2009-09-02T21:14:49Z</time>
</trkpt>
<trkpt lat="51.0792743" lon="6.7744631">
<ele>0.0000000</ele>
<time>2009-09-02T21:15:36Z</time>
</trkpt>
<trkpt lat="51.0776843" lon="6.7758778">
<ele>0.0000000</ele>
<time>2009-09-02T21:16:49Z</time>
</trkpt>
<trkpt lat="51.0767681" lon="6.7777201">
<ele>0.0000000</ele>
<time>2009-09-02T21:17:48Z</time>
</trkpt>
<trkpt lat="51.0751241" lon="6.7798586">
<ele>0.0000000</ele>
<time>2009-09-02T21:19:13Z</time>
</trkpt>
<trkpt lat="51.0744504" lon="6.7811416">
<ele>0.0000000</ele>
<time>2009-09-02T21:19:55Z</time>
</trkpt>
<trkpt lat="51.0736686" lon="6.7834444">
<ele>0.0000000</ele>
<time>2009-09-02T21:21:01Z</time>
</trkpt>
<trkpt lat="51.0729410" lon="6.7867344">
<ele>0.0000000</ele>
<time>2009-09-02T21:22:29Z</time>
</trkpt>
<trkpt lat="51.0725367" lon="6.7901559">
<ele>0.0000000</ele>
<time>2009-09-02T21:23:56Z</time>
</trkpt>
<trkpt lat="51.0719169" lon="6.7972950">
<ele>0.0000000</ele>
<time>2009-09-02T21:26:58Z</time>
</trkpt>
<trkpt lat="51.0715127" lon="6.7987425">
<ele>0.0000000</ele>
<time>2009-09-02T21:27:37Z</time>
</trkpt>
<trkpt lat="51.0683596" lon="6.8054212">
<ele>0.0000000</ele>
<time>2009-09-02T21:31:08Z</time>
</trkpt>
<trkpt lat="51.0675242" lon="6.8060133">
<ele>0.0000000</ele>
<time>2009-09-02T21:31:44Z</time>
</trkpt>
<trkpt lat="51.0663923" lon="6.8063094">
<ele>0.0000000</ele>
<time>2009-09-02T21:32:30Z</time>
</trkpt>
<trkpt lat="51.0650448" lon="6.8075267">
<ele>0.0000000</ele>
<time>2009-09-02T21:33:32Z</time>
</trkpt>
<trkpt lat="51.0640477" lon="6.8053882">
<ele>0.0000000</ele>
<time>2009-09-02T21:34:39Z</time>
</trkpt>
<trkpt lat="51.0627271" lon="6.8025918">
<ele>0.0000000</ele>
<time>2009-09-02T21:36:07Z</time>
</trkpt>
<trkpt lat="51.0616222" lon="6.8011114">
<ele>0.0000000</ele>
<time>2009-09-02T21:37:05Z</time>
</trkpt>
<trkpt lat="51.0596819" lon="6.7996309">
<ele>0.0000000</ele>
<time>2009-09-02T21:38:31Z</time>
</trkpt>
<trkpt lat="51.0591429" lon="6.7973279">
<ele>0.0000000</ele>
<time>2009-09-02T21:39:33Z</time>
</trkpt>
<trkpt lat="51.0580110" lon="6.7949921">
<ele>0.0000000</ele>
<time>2009-09-02T21:40:47Z</time>
</trkpt>
<trkpt lat="51.0581074" lon="6.7952739">
<ele>24.2000000</ele>
<time>2009-09-02T21:40:55Z</time>
</trkpt>
<trkpt lat="51.0579783" lon="6.7949989">
<ele>23.2000000</ele>
<time>2009-09-02T21:41:04Z</time>
</trkpt>
<trkpt lat="51.0577025" lon="6.7944044">
<ele>23.7000000</ele>
<time>2009-09-02T21:41:22Z</time>
</trkpt>
<trkpt lat="51.0573326" lon="6.7936065">
<ele>23.2000000</ele>
<time>2009-09-02T21:41:47Z</time>
</trkpt>
<trkpt lat="51.0572353" lon="6.7933969">
<ele>24.2000000</ele>
<time>2009-09-02T21:41:54Z</time>
</trkpt>
<trkpt lat="51.0570615" lon="6.7930220">
<ele>27.1000000</ele>
<time>2009-09-02T21:42:06Z</time>
</trkpt>
<trkpt lat="51.0566658" lon="6.7921688">
<ele>28.0000000</ele>
<time>2009-09-02T21:42:32Z</time>
</trkpt>
<trkpt lat="51.0565160" lon="6.7918457">
<ele>31.9000000</ele>
<time>2009-09-02T21:42:42Z</time>
</trkpt>
<trkpt lat="51.0564176" lon="6.7916333">
<ele>33.3000000</ele>
<time>2009-09-02T21:42:49Z</time>
</trkpt>
<trkpt lat="51.0560821" lon="6.7909100">
<ele>33.8000000</ele>
<time>2009-09-02T21:43:12Z</time>
</trkpt>
<trkpt lat="51.0557340" lon="6.7901594">
<ele>31.9000000</ele>
<time>2009-09-02T21:43:35Z</time>
</trkpt>
<trkpt lat="51.0556999" lon="6.7900856">
<ele>31.9000000</ele>
<time>2009-09-02T21:43:37Z</time>
</trkpt>
<trkpt lat="51.0553912" lon="6.7894201">
<ele>32.8000000</ele>
<time>2009-09-02T21:43:58Z</time>
</trkpt>
<trkpt lat="51.0551482" lon="6.7888960">
<ele>34.3000000</ele>
<time>2009-09-02T21:44:15Z</time>
</trkpt>
<trkpt lat="51.0548284" lon="6.7882064">
<ele>33.3000000</ele>
<time>2009-09-02T21:44:36Z</time>
</trkpt>
<trkpt lat="51.0546839" lon="6.7878948">
<ele>31.9000000</ele>
<time>2009-09-02T21:44:46Z</time>
</trkpt>
<trkpt lat="51.0543424" lon="6.7871583">
<ele>31.9000000</ele>
<time>2009-09-02T21:45:09Z</time>
</trkpt>
<trkpt lat="51.0540061" lon="6.7864331">
<ele>32.8000000</ele>
<time>2009-09-02T21:45:32Z</time>
</trkpt>
<trkpt lat="51.0539451" lon="6.7863014">
<ele>33.3000000</ele>
<time>2009-09-02T21:45:36Z</time>
</trkpt>
<trkpt lat="51.0535836" lon="6.7855220">
<ele>34.7000000</ele>
<time>2009-09-02T21:46:00Z</time>
</trkpt>
<trkpt lat="51.0534680" lon="6.7852727">
<ele>34.3000000</ele>
<time>2009-09-02T21:46:08Z</time>
</trkpt>
<trkpt lat="51.0533412" lon="6.7849992">
<ele>34.7000000</ele>
<time>2009-09-02T21:46:17Z</time>
</trkpt>
<trkpt lat="51.0532967" lon="6.7849033">
<ele>35.2000000</ele>
<time>2009-09-02T21:46:20Z</time>
</trkpt>
<trkpt lat="51.0527372" lon="6.7838430">
<ele>36.7000000</ele>
<time>2009-09-02T21:46:54Z</time>
</trkpt>
<trkpt lat="51.0526531" lon="6.7836747">
<ele>37.1000000</ele>
<time>2009-09-02T21:47:00Z</time>
</trkpt>
<trkpt lat="51.0525911" lon="6.7835507">
<ele>37.6000000</ele>
<time>2009-09-02T21:47:04Z</time>
</trkpt>
<trkpt lat="51.0524733" lon="6.7833191">
<ele>37.6000000</ele>
<time>2009-09-02T21:47:11Z</time>
</trkpt>
<trkpt lat="51.0517815" lon="6.7823731">
<ele>35.2000000</ele>
<time>2009-09-02T21:47:48Z</time>
</trkpt>
<trkpt lat="51.0511365" lon="6.7814909">
<ele>37.6000000</ele>
<time>2009-09-02T21:48:22Z</time>
</trkpt>
<trkpt lat="51.0504650" lon="6.7805725">
<ele>37.1000000</ele>
<time>2009-09-02T21:48:57Z</time>
</trkpt>
<trkpt lat="51.0497187" lon="6.7795519">
<ele>38.6000000</ele>
<time>2009-09-02T21:49:37Z</time>
</trkpt>
<trkpt lat="51.0493224" lon="6.7790742">
<ele>39.1000000</ele>
<time>2009-09-02T21:49:57Z</time>
</trkpt>
<trkpt lat="51.0493166" lon="6.7790103">
<ele>38.6000000</ele>
<time>2009-09-02T21:49:58Z</time>
</trkpt>
<trkpt lat="51.0494949" lon="6.7792479">
<ele>37.1000000</ele>
<time>2009-09-02T21:50:08Z</time>
</trkpt>
<trkpt lat="51.0495799" lon="6.7793620">
<ele>37.1000000</ele>
<time>2009-09-02T21:50:12Z</time>
</trkpt>
<trkpt lat="51.0496241" lon="6.7794225">
<ele>38.1000000</ele>
<time>2009-09-02T21:50:14Z</time>
</trkpt>
<trkpt lat="51.0495391" lon="6.7793070">
<ele>37.6000000</ele>
<time>2009-09-02T21:50:19Z</time>
</trkpt>
<trkpt lat="51.0494504" lon="6.7791887">
<ele>37.1000000</ele>
<time>2009-09-02T21:50:23Z</time>
</trkpt>
<trkpt lat="51.0488424" lon="6.7783680">
<ele>34.7000000</ele>
<time>2009-09-02T21:50:55Z</time>
</trkpt>
<trkpt lat="51.0481393" lon="6.7774107">
<ele>36.7000000</ele>
<time>2009-09-02T21:51:32Z</time>
</trkpt>
<trkpt lat="51.0472441" lon="6.7762041">
<ele>38.6000000</ele>
<time>2009-09-02T21:52:19Z</time>
</trkpt>
<trkpt lat="51.0463736" lon="6.7750900">
<ele>42.0000000</ele>
<time>2009-09-02T21:53:04Z</time>
</trkpt>
<trkpt lat="51.0455983" lon="6.7746162">
<ele>41.5000000</ele>
<time>2009-09-02T21:53:37Z</time>
</trkpt>
<trkpt lat="51.0453280" lon="6.7746990">
<ele>42.0000000</ele>
<time>2009-09-02T21:53:48Z</time>
</trkpt>
<trkpt lat="51.0452026" lon="6.7747902">
<ele>42.0000000</ele>
<time>2009-09-02T21:53:54Z</time>
</trkpt>
<trkpt lat="51.0441278" lon="6.7763444">
<ele>40.5000000</ele>
<time>2009-09-02T21:54:52Z</time>
</trkpt>
<trkpt lat="51.0432500" lon="6.7777924">
<ele>40.5000000</ele>
<time>2009-09-02T21:55:43Z</time>
</trkpt>
<trkpt lat="51.0424571" lon="6.7791049">
<ele>39.1000000</ele>
<time>2009-09-02T21:56:28Z</time>
</trkpt>
<trkpt lat="51.0418377" lon="6.7799543">
<ele>38.6000000</ele>
<time>2009-09-02T21:57:01Z</time>
</trkpt>
<trkpt lat="51.0414850" lon="6.7800973">
<ele>38.6000000</ele>
<time>2009-09-02T21:57:16Z</time>
</trkpt>
<trkpt lat="51.0408799" lon="6.7798588">
<ele>40.0000000</ele>
<time>2009-09-02T21:57:41Z</time>
</trkpt>
<trkpt lat="51.0407037" lon="6.7796656">
<ele>40.5000000</ele>
<time>2009-09-02T21:57:49Z</time>
</trkpt>
<trkpt lat="51.0403070" lon="6.7790046">
<ele>40.5000000</ele>
<time>2009-09-02T21:58:12Z</time>
</trkpt>
<trkpt lat="51.0393705" lon="6.7774143">
<ele>40.5000000</ele>
<time>2009-09-02T21:59:07Z</time>
</trkpt>
<trkpt lat="51.0382889" lon="6.7756103">
<ele>40.5000000</ele>
<time>2009-09-02T22:00:10Z</time>
</trkpt>
<trkpt lat="51.0378922" lon="6.7754316">
<ele>41.5000000</ele>
<time>2009-09-02T22:00:26Z</time>
</trkpt>
<trkpt lat="51.0374503" lon="6.7756750">
<ele>42.4000000</ele>
<time>2009-09-02T22:00:45Z</time>
</trkpt>
<trkpt lat="51.0362141" lon="6.7763614">
<ele>43.4000000</ele>
<time>2009-09-02T22:01:37Z</time>
</trkpt>
<trkpt lat="51.0351176" lon="6.7769664">
<ele>42.4000000</ele>
<time>2009-09-02T22:02:24Z</time>
</trkpt>
<trkpt lat="51.0339156" lon="6.7776479">
<ele>42.4000000</ele>
<time>2009-09-02T22:03:15Z</time>
</trkpt>
<trkpt lat="51.0327473" lon="6.7783105">
<ele>42.9000000</ele>
<time>2009-09-02T22:04:05Z</time>
</trkpt>
<trkpt lat="51.0314876" lon="6.7790176">
<ele>43.4000000</ele>
<time>2009-09-02T22:04:58Z</time>
</trkpt>
<trkpt lat="51.0300933" lon="6.7797944">
<ele>44.4000000</ele>
<time>2009-09-02T22:05:57Z</time>
</trkpt>
<trkpt lat="51.0289712" lon="6.7804191">
<ele>47.7000000</ele>
<time>2009-09-02T22:06:45Z</time>
</trkpt>
<trkpt lat="51.0281117" lon="6.7808966">
<ele>42.0000000</ele>
<time>2009-09-02T22:07:21Z</time>
</trkpt>
<trkpt lat="51.0273510" lon="6.7813193">
<ele>40.0000000</ele>
<time>2009-09-02T22:07:54Z</time>
</trkpt>
<trkpt lat="51.0272490" lon="6.7812512">
<ele>40.0000000</ele>
<time>2009-09-02T22:07:58Z</time>
</trkpt>
<trkpt lat="51.0271721" lon="6.7810514">
<ele>40.5000000</ele>
<time>2009-09-02T22:08:04Z</time>
</trkpt>
<trkpt lat="51.0268544" lon="6.7802259">
<ele>43.4000000</ele>
<time>2009-09-02T22:08:28Z</time>
</trkpt>
<trkpt lat="51.0262904" lon="6.7788119">
<ele>42.0000000</ele>
<time>2009-09-02T22:09:10Z</time>
</trkpt>
<trkpt lat="51.0256437" lon="6.7771059">
<ele>40.0000000</ele>
<time>2009-09-02T22:10:01Z</time>
</trkpt>
<trkpt lat="51.0249942" lon="6.7746629">
<ele>39.1000000</ele>
<time>2009-09-02T22:11:07Z</time>
</trkpt>
<trkpt lat="51.0244098" lon="6.7725586">
<ele>41.0000000</ele>
<time>2009-09-02T22:12:05Z</time>
</trkpt>
<trkpt lat="51.0239597" lon="6.7708529">
<ele>47.2000000</ele>
<time>2009-09-02T22:12:52Z</time>
</trkpt>
<trkpt lat="51.0239002" lon="6.7706742">
<ele>47.7000000</ele>
<time>2009-09-02T22:12:57Z</time>
</trkpt>
<trkpt lat="51.0237821" lon="6.7703199">
<ele>47.2000000</ele>
<time>2009-09-02T22:13:07Z</time>
</trkpt>
<trkpt lat="51.0233694" lon="6.7690818">
<ele>46.8000000</ele>
<time>2009-09-02T22:13:42Z</time>
</trkpt>
<trkpt lat="51.0227394" lon="6.7676640">
<ele>46.3000000</ele>
<time>2009-09-02T22:14:26Z</time>
</trkpt>
<trkpt lat="51.0224822" lon="6.7673832">
<ele>47.7000000</ele>
<time>2009-09-02T22:14:39Z</time>
</trkpt>
<trkpt lat="51.0216042" lon="6.7665686">
<ele>49.2000000</ele>
<time>2009-09-02T22:15:19Z</time>
</trkpt>
<trkpt lat="51.0214625" lon="6.7663792">
<ele>50.6000000</ele>
<time>2009-09-02T22:15:27Z</time>
</trkpt>
<trkpt lat="51.0209159" lon="6.7652508">
<ele>54.9000000</ele>
<time>2009-09-02T22:16:03Z</time>
</trkpt>
<trkpt lat="51.0204679" lon="6.7638659">
<ele>60.2000000</ele>
<time>2009-09-02T22:16:42Z</time>
</trkpt>
<trkpt lat="51.0204266" lon="6.7634851">
<ele>62.1000000</ele>
<time>2009-09-02T22:16:51Z</time>
</trkpt>
<trkpt lat="51.0205035" lon="6.7624850">
<ele>63.1000000</ele>
<time>2009-09-02T22:17:17Z</time>
</trkpt>
<trkpt lat="51.0204978" lon="6.7623381">
<ele>63.1000000</ele>
<time>2009-09-02T22:17:21Z</time>
</trkpt>
<trkpt lat="51.0203594" lon="6.7616727">
<ele>68.4000000</ele>
<time>2009-09-02T22:17:38Z</time>
</trkpt>
<trkpt lat="51.0201994" lon="6.7611112">
<ele>69.8000000</ele>
<time>2009-09-02T22:17:54Z</time>
</trkpt>
<trkpt lat="51.0201394" lon="6.7608858">
<ele>48.2000000</ele>
<time>2009-09-02T22:18:00Z</time>
</trkpt>
<trkpt lat="51.0199380" lon="6.7601843">
<ele>45.3000000</ele>
<time>2009-09-02T22:18:19Z</time>
</trkpt>
<trkpt lat="51.0198212" lon="6.7598104">
<ele>44.4000000</ele>
<time>2009-09-02T22:18:30Z</time>
</trkpt>
<trkpt lat="51.0198394" lon="6.7597684">
<ele>42.0000000</ele>
<time>2009-09-02T22:18:31Z</time>
</trkpt>
<trkpt lat="51.0199136" lon="6.7595970">
<ele>42.9000000</ele>
<time>2009-09-02T22:18:36Z</time>
</trkpt>
<trkpt lat="51.0201903" lon="6.7589587">
<ele>47.2000000</ele>
<time>2009-09-02T22:18:56Z</time>
</trkpt>
<trkpt lat="51.0203983" lon="6.7584833">
<ele>48.2000000</ele>
<time>2009-09-02T22:19:10Z</time>
</trkpt>
<trkpt lat="51.0205346" lon="6.7582034">
<ele>48.7000000</ele>
<time>2009-09-02T22:19:19Z</time>
</trkpt>
<trkpt lat="51.0206742" lon="6.7579163">
<ele>48.2000000</ele>
<time>2009-09-02T22:19:28Z</time>
</trkpt>
<trkpt lat="51.0207793" lon="6.7577002">
<ele>48.2000000</ele>
<time>2009-09-02T22:19:35Z</time>
</trkpt>
<trkpt lat="51.0211203" lon="6.7569993">
<ele>49.6000000</ele>
<time>2009-09-02T22:19:58Z</time>
</trkpt>
<trkpt lat="51.0211920" lon="6.7570059">
<ele>50.1000000</ele>
<time>2009-09-02T22:20:01Z</time>
</trkpt>
<trkpt lat="51.0234363" lon="6.7517463">
<ele>49.6000000</ele>
<time>2009-09-02T22:22:41Z</time>
</trkpt>
<trkpt lat="51.0234404" lon="6.7516777">
<ele>49.6000000</ele>
<time>2009-09-02T22:22:42Z</time>
</trkpt>
<trkpt lat="51.0234794" lon="6.7515019">
<ele>48.7000000</ele>
<time>2009-09-02T22:22:47Z</time>
</trkpt>
<trkpt lat="51.0235336" lon="6.7512583">
<ele>52.0000000</ele>
<time>2009-09-02T22:22:53Z</time>
</trkpt>
<trkpt lat="51.0236320" lon="6.7503858">
<ele>53.5000000</ele>
<time>2009-09-02T22:23:16Z</time>
</trkpt>
<trkpt lat="51.0235636" lon="6.7490837">
<ele>52.5000000</ele>
<time>2009-09-02T22:23:49Z</time>
</trkpt>
<trkpt lat="51.0233621" lon="6.7465964">
<ele>57.3000000</ele>
<time>2009-09-02T22:24:52Z</time>
</trkpt>
<trkpt lat="51.0231867" lon="6.7446393">
<ele>61.2000000</ele>
<time>2009-09-02T22:25:42Z</time>
</trkpt>
<trkpt lat="51.0230466" lon="6.7428176">
<ele>65.0000000</ele>
<time>2009-09-02T22:26:28Z</time>
</trkpt>
<trkpt lat="51.0228540" lon="6.7410097">
<ele>65.5000000</ele>
<time>2009-09-02T22:27:14Z</time>
</trkpt>
<trkpt lat="51.0227087" lon="6.7391185">
<ele>63.1000000</ele>
<time>2009-09-02T22:28:02Z</time>
</trkpt>
<trkpt lat="51.0225750" lon="6.7375461">
<ele>62.6000000</ele>
<time>2009-09-02T22:28:42Z</time>
</trkpt>
<trkpt lat="51.0224390" lon="6.7358338">
<ele>64.5000000</ele>
<time>2009-09-02T22:29:25Z</time>
</trkpt>
<trkpt lat="51.0224627" lon="6.7339514">
<ele>64.5000000</ele>
<time>2009-09-02T22:30:13Z</time>
</trkpt>
<trkpt lat="51.0225699" lon="6.7315152">
<ele>66.5000000</ele>
<time>2009-09-02T22:31:14Z</time>
</trkpt>
<trkpt lat="51.0226623" lon="6.7294167">
<ele>68.4000000</ele>
<time>2009-09-02T22:32:07Z</time>
</trkpt>
<trkpt lat="51.0227952" lon="6.7268424">
<ele>72.2000000</ele>
<time>2009-09-02T22:33:12Z</time>
</trkpt>
<trkpt lat="51.0229535" lon="6.7248802">
<ele>74.6000000</ele>
<time>2009-09-02T22:34:02Z</time>
</trkpt>
<trkpt lat="51.0231686" lon="6.7233606">
<ele>74.6000000</ele>
<time>2009-09-02T22:34:41Z</time>
</trkpt>
<trkpt lat="51.0232653" lon="6.7228711">
<ele>76.6000000</ele>
<time>2009-09-02T22:34:54Z</time>
</trkpt>
<trkpt lat="51.0234163" lon="6.7225081">
<ele>74.6000000</ele>
<time>2009-09-02T22:35:05Z</time>
</trkpt>
<trkpt lat="51.0236400" lon="6.7215815">
<ele>77.5000000</ele>
<time>2009-09-02T22:35:30Z</time>
</trkpt>
<trkpt lat="51.0242223" lon="6.7192032">
<ele>77.0000000</ele>
<time>2009-09-02T22:36:34Z</time>
</trkpt>
<trkpt lat="51.0247353" lon="6.7171510">
<ele>79.9000000</ele>
<time>2009-09-02T22:37:30Z</time>
</trkpt>
<trkpt lat="51.0252836" lon="6.7149663">
<ele>79.0000000</ele>
<time>2009-09-02T22:38:29Z</time>
</trkpt>
<trkpt lat="51.0258390" lon="6.7127686">
<ele>82.8000000</ele>
<time>2009-09-02T22:39:29Z</time>
</trkpt>
<trkpt lat="51.0263426" lon="6.7110632">
<ele>85.7000000</ele>
<time>2009-09-02T22:40:16Z</time>
</trkpt>
<trkpt lat="51.0270066" lon="6.7095093">
<ele>85.2000000</ele>
<time>2009-09-02T22:41:04Z</time>
</trkpt>
<trkpt lat="51.0275856" lon="6.7082383">
<ele>84.3000000</ele>
<time>2009-09-02T22:41:43Z</time>
</trkpt>
<trkpt lat="51.0278816" lon="6.7075582">
<ele>84.3000000</ele>
<time>2009-09-02T22:42:04Z</time>
</trkpt>
<trkpt lat="51.0284753" lon="6.7061943">
<ele>84.7000000</ele>
<time>2009-09-02T22:42:46Z</time>
</trkpt>
<trkpt lat="51.0290335" lon="6.7049120">
<ele>83.8000000</ele>
<time>2009-09-02T22:43:25Z</time>
</trkpt>
<trkpt lat="51.0295365" lon="6.7037157">
<ele>81.8000000</ele>
<time>2009-09-02T22:44:01Z</time>
</trkpt>
<trkpt lat="51.0299049" lon="6.7028382">
<ele>79.9000000</ele>
<time>2009-09-02T22:44:28Z</time>
</trkpt>
<trkpt lat="51.0299105" lon="6.7027029">
<ele>80.4000000</ele>
<time>2009-09-02T22:44:31Z</time>
</trkpt>
<trkpt lat="51.0297716" lon="6.7025947">
<ele>80.9000000</ele>
<time>2009-09-02T22:44:37Z</time>
</trkpt>
<trkpt lat="51.0294963" lon="6.7023807">
<ele>81.4000000</ele>
<time>2009-09-02T22:44:50Z</time>
</trkpt>
<trkpt lat="51.0284699" lon="6.7015824">
<ele>81.8000000</ele>
<time>2009-09-02T22:45:35Z</time>
</trkpt>
<trkpt lat="51.0277940" lon="6.7010567">
<ele>81.4000000</ele>
<time>2009-09-02T22:46:06Z</time>
</trkpt>
<trkpt lat="51.0276845" lon="6.7007304">
<ele>79.9000000</ele>
<time>2009-09-02T22:46:15Z</time>
</trkpt>
<trkpt lat="51.0277231" lon="6.7005833">
<ele>79.9000000</ele>
<time>2009-09-02T22:46:19Z</time>
</trkpt>
<trkpt lat="51.0279357" lon="6.7000036">
<ele>82.8000000</ele>
<time>2009-09-02T22:46:36Z</time>
</trkpt>
<trkpt lat="51.0280439" lon="6.6996250">
<ele>84.3000000</ele>
<time>2009-09-02T22:46:46Z</time>
</trkpt>
<trkpt lat="51.0280799" lon="6.6992432">
<ele>79.9000000</ele>
<time>2009-09-02T22:46:56Z</time>
</trkpt>
<trkpt lat="51.0281071" lon="6.6989532">
<ele>79.4000000</ele>
<time>2009-09-02T22:47:03Z</time>
</trkpt>
<trkpt lat="51.0281552" lon="6.6984422">
<ele>76.6000000</ele>
<time>2009-09-02T22:47:16Z</time>
</trkpt>
<trkpt lat="51.0282093" lon="6.6978680">
<ele>74.2000000</ele>
<time>2009-09-02T22:47:31Z</time>
</trkpt>
<trkpt lat="51.0282297" lon="6.6976508">
<ele>73.7000000</ele>
<time>2009-09-02T22:47:36Z</time>
</trkpt>
<trkpt lat="51.0282581" lon="6.6973491">
<ele>73.2000000</ele>
<time>2009-09-02T22:47:44Z</time>
</trkpt>
<trkpt lat="51.0282969" lon="6.6969374">
<ele>72.2000000</ele>
<time>2009-09-02T22:47:55Z</time>
</trkpt>
<trkpt lat="51.0283202" lon="6.6966894">
<ele>72.7000000</ele>
<time>2009-09-02T22:48:01Z</time>
</trkpt>
<trkpt lat="51.0283541" lon="6.6961873">
<ele>71.8000000</ele>
<time>2009-09-02T22:48:14Z</time>
</trkpt>
<trkpt lat="51.0283218" lon="6.6958972">
<ele>70.8000000</ele>
<time>2009-09-02T22:48:21Z</time>
</trkpt>
<trkpt lat="51.0283184" lon="6.6956093">
<ele>70.8000000</ele>
<time>2009-09-02T22:48:28Z</time>
</trkpt>
<trkpt lat="51.0283324" lon="6.6950568">
<ele>70.8000000</ele>
<time>2009-09-02T22:48:42Z</time>
</trkpt>
<trkpt lat="51.0283545" lon="6.6945262">
<ele>70.3000000</ele>
<time>2009-09-02T22:48:56Z</time>
</trkpt>
<trkpt lat="51.0283620" lon="6.6943479">
<ele>70.8000000</ele>
<time>2009-09-02T22:49:00Z</time>
</trkpt>
<trkpt lat="51.0283840" lon="6.6938189">
<ele>71.3000000</ele>
<time>2009-09-02T22:49:13Z</time>
</trkpt>
<trkpt lat="51.0283910" lon="6.6936519">
<ele>70.8000000</ele>
<time>2009-09-02T22:49:18Z</time>
</trkpt>
<trkpt lat="51.0284426" lon="6.6920504">
<ele>66.9000000</ele>
<time>2009-09-02T22:49:58Z</time>
</trkpt>
<trkpt lat="51.0284653" lon="6.6919031">
<ele>66.5000000</ele>
<time>2009-09-02T22:50:02Z</time>
</trkpt>
<trkpt lat="51.0286958" lon="6.6911658">
<ele>64.1000000</ele>
<time>2009-09-02T22:50:23Z</time>
</trkpt>
<trkpt lat="51.0287890" lon="6.6908673">
<ele>63.6000000</ele>
<time>2009-09-02T22:50:31Z</time>
</trkpt>
<trkpt lat="51.0286433" lon="6.6905271">
<ele>64.5000000</ele>
<time>2009-09-02T22:50:41Z</time>
</trkpt>
<trkpt lat="51.0277846" lon="6.6903305">
<ele>67.4000000</ele>
<time>2009-09-02T22:51:16Z</time>
</trkpt>
<trkpt lat="51.0267107" lon="6.6903305">
<ele>73.2000000</ele>
<time>2009-09-02T22:51:59Z</time>
</trkpt>
<trkpt lat="51.0258889" lon="6.6900922">
<ele>71.3000000</ele>
<time>2009-09-02T22:52:33Z</time>
</trkpt>
<trkpt lat="51.0255103" lon="6.6897515">
<ele>70.8000000</ele>
<time>2009-09-02T22:52:50Z</time>
</trkpt>
<trkpt lat="51.0247662" lon="6.6891689">
<ele>72.2000000</ele>
<time>2009-09-02T22:53:23Z</time>
</trkpt>
<trkpt lat="51.0235503" lon="6.6889441">
<ele>73.2000000</ele>
<time>2009-09-02T22:54:12Z</time>
</trkpt>
<trkpt lat="51.0223631" lon="6.6890347">
<ele>76.1000000</ele>
<time>2009-09-02T22:55:00Z</time>
</trkpt>
<trkpt lat="51.0212936" lon="6.6886846">
<ele>73.2000000</ele>
<time>2009-09-02T22:55:43Z</time>
</trkpt>
<trkpt lat="51.0207568" lon="6.6884919">
<ele>72.7000000</ele>
<time>2009-09-02T22:56:05Z</time>
</trkpt>
<trkpt lat="51.0206845" lon="6.6884659">
<ele>72.2000000</ele>
<time>2009-09-02T22:56:08Z</time>
</trkpt>
<trkpt lat="51.0200886" lon="6.6882998">
<ele>71.8000000</ele>
<time>2009-09-02T22:56:33Z</time>
</trkpt>
<trkpt lat="51.0187000" lon="6.6880224">
<ele>73.7000000</ele>
<time>2009-09-02T22:57:29Z</time>
</trkpt>
<trkpt lat="51.0175472" lon="6.6876513">
<ele>72.7000000</ele>
<time>2009-09-02T22:58:16Z</time>
</trkpt>
<trkpt lat="51.0165134" lon="6.6873927">
<ele>74.6000000</ele>
<time>2009-09-02T22:58:58Z</time>
</trkpt>
<trkpt lat="51.0155549" lon="6.6872222">
<ele>73.7000000</ele>
<time>2009-09-02T22:59:36Z</time>
</trkpt>
<trkpt lat="51.0145679" lon="6.6871341">
<ele>76.1000000</ele>
<time>2009-09-02T23:00:16Z</time>
</trkpt>
<trkpt lat="51.0137010" lon="6.6873726">
<ele>73.7000000</ele>
<time>2009-09-02T23:00:51Z</time>
</trkpt>
<trkpt lat="51.0134697" lon="6.6874552">
<ele>74.2000000</ele>
<time>2009-09-02T23:01:01Z</time>
</trkpt>
<trkpt lat="51.0135240" lon="6.6872034">
<ele>70.3000000</ele>
<time>2009-09-02T23:01:07Z</time>
</trkpt>
<trkpt lat="51.0137710" lon="6.6860581">
<ele>68.4000000</ele>
<time>2009-09-02T23:01:38Z</time>
</trkpt>
<trkpt lat="51.0140256" lon="6.6847803">
<ele>65.5000000</ele>
<time>2009-09-02T23:02:11Z</time>
</trkpt>
<trkpt lat="51.0143449" lon="6.6827615">
<ele>64.1000000</ele>
<time>2009-09-02T23:03:04Z</time>
</trkpt>
<trkpt lat="51.0145758" lon="6.6815059">
<ele>69.4000000</ele>
<time>2009-09-02T23:03:37Z</time>
</trkpt>
<trkpt lat="51.0146827" lon="6.6809250">
<ele>69.8000000</ele>
<time>2009-09-02T23:03:52Z</time>
</trkpt>
<trkpt lat="51.0149590" lon="6.6796528">
<ele>69.4000000</ele>
<time>2009-09-02T23:04:26Z</time>
</trkpt>
<trkpt lat="51.0149717" lon="6.6793742">
<ele>67.9000000</ele>
<time>2009-09-02T23:04:33Z</time>
</trkpt>
<trkpt lat="51.0149717" lon="6.6789429">
<ele>66.9000000</ele>
<time>2009-09-02T23:04:44Z</time>
</trkpt>
<trkpt lat="51.0149717" lon="6.6785288">
<ele>66.0000000</ele>
<time>2009-09-02T23:04:54Z</time>
</trkpt>
<trkpt lat="51.0147335" lon="6.6771330">
<ele>68.4000000</ele>
<time>2009-09-02T23:05:31Z</time>
</trkpt>
<trkpt lat="51.0144845" lon="6.6747553">
<ele>70.8000000</ele>
<time>2009-09-02T23:06:31Z</time>
</trkpt>
<trkpt lat="51.0143709" lon="6.6725427">
<ele>71.8000000</ele>
<time>2009-09-02T23:07:27Z</time>
</trkpt>
<trkpt lat="51.0142713" lon="6.6703326">
<ele>70.8000000</ele>
<time>2009-09-02T23:08:23Z</time>
</trkpt>
<trkpt lat="51.0138907" lon="6.6687550">
<ele>71.8000000</ele>
<time>2009-09-02T23:09:06Z</time>
</trkpt>
<trkpt lat="51.0132452" lon="6.6673663">
<ele>71.8000000</ele>
<time>2009-09-02T23:09:49Z</time>
</trkpt>
<trkpt lat="51.0125467" lon="6.6659294">
<ele>69.8000000</ele>
<time>2009-09-02T23:10:35Z</time>
</trkpt>
<trkpt lat="51.0117365" lon="6.6643640">
<ele>70.3000000</ele>
<time>2009-09-02T23:11:26Z</time>
</trkpt>
<trkpt lat="51.0110659" lon="6.6629211">
<ele>71.8000000</ele>
<time>2009-09-02T23:12:11Z</time>
</trkpt>
<trkpt lat="51.0102608" lon="6.6613341">
<ele>70.8000000</ele>
<time>2009-09-02T23:13:02Z</time>
</trkpt>
<trkpt lat="51.0098028" lon="6.6604232">
<ele>72.2000000</ele>
<time>2009-09-02T23:13:32Z</time>
</trkpt>
<trkpt lat="51.0093174" lon="6.6594524">
<ele>71.8000000</ele>
<time>2009-09-02T23:14:03Z</time>
</trkpt>
<trkpt lat="51.0085750" lon="6.6576252">
<ele>73.2000000</ele>
<time>2009-09-02T23:14:58Z</time>
</trkpt>
<trkpt lat="51.0079437" lon="6.6560069">
<ele>72.7000000</ele>
<time>2009-09-02T23:15:46Z</time>
</trkpt>
<trkpt lat="51.0072252" lon="6.6541649">
<ele>71.8000000</ele>
<time>2009-09-02T23:16:40Z</time>
</trkpt>
<trkpt lat="51.0065664" lon="6.6524762">
<ele>73.2000000</ele>
<time>2009-09-02T23:17:30Z</time>
</trkpt>
<trkpt lat="51.0059831" lon="6.6509408">
<ele>75.6000000</ele>
<time>2009-09-02T23:18:16Z</time>
</trkpt>
<trkpt lat="51.0052669" lon="6.6490977">
<ele>77.5000000</ele>
<time>2009-09-02T23:19:10Z</time>
</trkpt>
<trkpt lat="51.0048008" lon="6.6475010">
<ele>79.4000000</ele>
<time>2009-09-02T23:19:55Z</time>
</trkpt>
<trkpt lat="51.0049248" lon="6.6472458">
<ele>79.0000000</ele>
<time>2009-09-02T23:20:03Z</time>
</trkpt>
<trkpt lat="51.0052164" lon="6.6466454">
<ele>79.4000000</ele>
<time>2009-09-02T23:20:22Z</time>
</trkpt>
<trkpt lat="51.0056837" lon="6.6455583">
<ele>79.9000000</ele>
<time>2009-09-02T23:20:55Z</time>
</trkpt>
<trkpt lat="51.0061098" lon="6.6437919">
<ele>79.0000000</ele>
<time>2009-09-02T23:21:43Z</time>
</trkpt>
<trkpt lat="51.0061901" lon="6.6421214">
<ele>81.8000000</ele>
<time>2009-09-02T23:22:25Z</time>
</trkpt>
<trkpt lat="51.0063410" lon="6.6404753">
<ele>81.8000000</ele>
<time>2009-09-02T23:23:07Z</time>
</trkpt>
<trkpt lat="51.0067625" lon="6.6389809">
<ele>80.4000000</ele>
<time>2009-09-02T23:23:48Z</time>
</trkpt>
<trkpt lat="51.0072020" lon="6.6378166">
<ele>79.4000000</ele>
<time>2009-09-02T23:24:22Z</time>
</trkpt>
<trkpt lat="51.0078144" lon="6.6363288">
<ele>80.4000000</ele>
<time>2009-09-02T23:25:07Z</time>
</trkpt>
<trkpt lat="51.0080320" lon="6.6360023">
<ele>81.8000000</ele>
<time>2009-09-02T23:25:19Z</time>
</trkpt>
<trkpt lat="51.0081679" lon="6.6358909">
<ele>82.8000000</ele>
<time>2009-09-02T23:25:25Z</time>
</trkpt>
<trkpt lat="51.0091441" lon="6.6354207">
<ele>81.8000000</ele>
<time>2009-09-02T23:26:06Z</time>
</trkpt>
<trkpt lat="51.0102055" lon="6.6349896">
<ele>79.9000000</ele>
<time>2009-09-02T23:26:50Z</time>
</trkpt>
<trkpt lat="51.0117974" lon="6.6343241">
<ele>81.4000000</ele>
<time>2009-09-02T23:27:56Z</time>
</trkpt>
<trkpt lat="51.0131425" lon="6.6336833">
<ele>83.3000000</ele>
<time>2009-09-02T23:28:52Z</time>
</trkpt>
<trkpt lat="51.0147009" lon="6.6328049">
<ele>86.7000000</ele>
<time>2009-09-02T23:29:58Z</time>
</trkpt>
<trkpt lat="51.0160593" lon="6.6320370">
<ele>89.1000000</ele>
<time>2009-09-02T23:30:56Z</time>
</trkpt>
<trkpt lat="51.0161844" lon="6.6319473">
<ele>90.0000000</ele>
<time>2009-09-02T23:31:01Z</time>
</trkpt>
<trkpt lat="51.0162775" lon="6.6314616">
<ele>89.5000000</ele>
<time>2009-09-02T23:31:14Z</time>
</trkpt>
<trkpt lat="51.0160875" lon="6.6305494">
<ele>92.9000000</ele>
<time>2009-09-02T23:31:38Z</time>
</trkpt>
<trkpt lat="51.0162019" lon="6.6297805">
<ele>94.8000000</ele>
<time>2009-09-02T23:31:58Z</time>
</trkpt>
<trkpt lat="51.0164738" lon="6.6293049">
<ele>95.3000000</ele>
<time>2009-09-02T23:32:14Z</time>
</trkpt>
<trkpt lat="51.0168821" lon="6.6279907">
<ele>95.3000000</ele>
<time>2009-09-02T23:32:51Z</time>
</trkpt>
<trkpt lat="51.0171659" lon="6.6264945">
<ele>94.3000000</ele>
<time>2009-09-02T23:33:31Z</time>
</trkpt>
<trkpt lat="51.0174986" lon="6.6252625">
<ele>93.9000000</ele>
<time>2009-09-02T23:34:04Z</time>
</trkpt>
<trkpt lat="51.0175265" lon="6.6251708">
<ele>93.9000000</ele>
<time>2009-09-02T23:34:07Z</time>
</trkpt>
<trkpt lat="51.0180052" lon="6.6235937">
<ele>92.9000000</ele>
<time>2009-09-02T23:34:51Z</time>
</trkpt>
<trkpt lat="51.0187599" lon="6.6211645">
<ele>94.8000000</ele>
<time>2009-09-02T23:35:59Z</time>
</trkpt>
<trkpt lat="51.0193530" lon="6.6191992">
<ele>100.6000000</ele>
<time>2009-09-02T23:36:54Z</time>
</trkpt>
<trkpt lat="51.0198455" lon="6.6173575">
<ele>94.8000000</ele>
<time>2009-09-02T23:37:44Z</time>
</trkpt>
<trkpt lat="51.0202238" lon="6.6156788">
<ele>101.1000000</ele>
<time>2009-09-02T23:38:29Z</time>
</trkpt>
<trkpt lat="51.0205457" lon="6.6142180">
<ele>100.6000000</ele>
<time>2009-09-02T23:39:08Z</time>
</trkpt>
<trkpt lat="51.0206190" lon="6.6138733">
<ele>101.1000000</ele>
<time>2009-09-02T23:39:18Z</time>
</trkpt>
<trkpt lat="51.0209326" lon="6.6121710">
<ele>103.5000000</ele>
<time>2009-09-02T23:40:02Z</time>
</trkpt>
<trkpt lat="51.0212163" lon="6.6101819">
<ele>101.6000000</ele>
<time>2009-09-02T23:40:54Z</time>
</trkpt>
<trkpt lat="51.0214365" lon="6.6083061">
<ele>100.6000000</ele>
<time>2009-09-02T23:41:42Z</time>
</trkpt>
<trkpt lat="51.0216667" lon="6.6066013">
<ele>100.6000000</ele>
<time>2009-09-02T23:42:25Z</time>
</trkpt>
<trkpt lat="51.0216798" lon="6.6065001">
<ele>101.1000000</ele>
<time>2009-09-02T23:42:28Z</time>
</trkpt>
<trkpt lat="51.0218633" lon="6.6050774">
<ele>99.6000000</ele>
<time>2009-09-02T23:43:05Z</time>
</trkpt>
<trkpt lat="51.0220611" lon="6.6035454">
<ele>96.3000000</ele>
<time>2009-09-02T23:43:44Z</time>
</trkpt>
<trkpt lat="51.0222274" lon="6.6022561">
<ele>97.7000000</ele>
<time>2009-09-02T23:44:17Z</time>
</trkpt>
<trkpt lat="51.0223901" lon="6.6009958">
<ele>97.2000000</ele>
<time>2009-09-02T23:44:50Z</time>
</trkpt>
<trkpt lat="51.0225579" lon="6.5996948">
<ele>92.9000000</ele>
<time>2009-09-02T23:45:23Z</time>
</trkpt>
<trkpt lat="51.0227130" lon="6.5984389">
<ele>93.4000000</ele>
<time>2009-09-02T23:45:55Z</time>
</trkpt>
<trkpt lat="51.0227516" lon="6.5980147">
<ele>92.4000000</ele>
<time>2009-09-02T23:46:06Z</time>
</trkpt>
<trkpt lat="51.0228755" lon="6.5965006">
<ele>90.5000000</ele>
<time>2009-09-02T23:46:44Z</time>
</trkpt>
<trkpt lat="51.0229111" lon="6.5951298">
<ele>89.5000000</ele>
<time>2009-09-02T23:47:19Z</time>
</trkpt>
<trkpt lat="51.0228983" lon="6.5939403">
<ele>88.6000000</ele>
<time>2009-09-02T23:47:49Z</time>
</trkpt>
<trkpt lat="51.0227927" lon="6.5928486">
<ele>86.7000000</ele>
<time>2009-09-02T23:48:17Z</time>
</trkpt>
<trkpt lat="51.0226224" lon="6.5915017">
<ele>83.8000000</ele>
<time>2009-09-02T23:48:51Z</time>
</trkpt>
<trkpt lat="51.0223384" lon="6.5902943">
<ele>81.4000000</ele>
<time>2009-09-02T23:49:24Z</time>
</trkpt>
<trkpt lat="51.0220651" lon="6.5893018">
<ele>78.0000000</ele>
<time>2009-09-02T23:49:51Z</time>
</trkpt>
<trkpt lat="51.0216855" lon="6.5881631">
<ele>69.4000000</ele>
<time>2009-09-02T23:50:24Z</time>
</trkpt>
<trkpt lat="51.0213085" lon="6.5872226">
<ele>66.5000000</ele>
<time>2009-09-02T23:50:52Z</time>
</trkpt>
<trkpt lat="51.0208290" lon="6.5861198">
<ele>64.5000000</ele>
<time>2009-09-02T23:51:25Z</time>
</trkpt>
<trkpt lat="51.0202900" lon="6.5851659">
<ele>59.7000000</ele>
<time>2009-09-02T23:51:58Z</time>
</trkpt>
<trkpt lat="51.0197615" lon="6.5843954">
<ele>57.8000000</ele>
<time>2009-09-02T23:52:26Z</time>
</trkpt>
<trkpt lat="51.0195514" lon="6.5841471">
<ele>56.4000000</ele>
<time>2009-09-02T23:52:37Z</time>
</trkpt>
<trkpt lat="51.0187894" lon="6.5832280">
<ele>57.3000000</ele>
<time>2009-09-02T23:53:15Z</time>
</trkpt>
<trkpt lat="51.0187525" lon="6.5831690">
<ele>57.3000000</ele>
<time>2009-09-02T23:53:17Z</time>
</trkpt>
<trkpt lat="51.0186195" lon="6.5823805">
<ele>55.4000000</ele>
<time>2009-09-02T23:53:38Z</time>
</trkpt>
<trkpt lat="51.0183131" lon="6.5817302">
<ele>53.0000000</ele>
<time>2009-09-02T23:53:58Z</time>
</trkpt>
<trkpt lat="51.0181388" lon="6.5816919">
<ele>53.0000000</ele>
<time>2009-09-02T23:54:05Z</time>
</trkpt>
<trkpt lat="51.0178927" lon="6.5816378">
<ele>53.5000000</ele>
<time>2009-09-02T23:54:15Z</time>
</trkpt>
<trkpt lat="51.0178538" lon="6.5816293">
<ele>53.0000000</ele>
<time>2009-09-02T23:54:17Z</time>
</trkpt>
<trkpt lat="51.0175322" lon="6.5815588">
<ele>51.1000000</ele>
<time>2009-09-02T23:54:30Z</time>
</trkpt>
<trkpt lat="51.0174417" lon="6.5815389">
<ele>51.1000000</ele>
<time>2009-09-02T23:54:33Z</time>
</trkpt>
<trkpt lat="51.0172583" lon="6.5814987">
<ele>51.6000000</ele>
<time>2009-09-02T23:54:41Z</time>
</trkpt>
<trkpt lat="51.0165143" lon="6.5813377">
<ele>52.0000000</ele>
<time>2009-09-02T23:55:11Z</time>
</trkpt>
<trkpt lat="51.0162387" lon="6.5812792">
<ele>52.5000000</ele>
<time>2009-09-02T23:55:22Z</time>
</trkpt>
<trkpt lat="51.0156906" lon="6.5811628">
<ele>48.7000000</ele>
<time>2009-09-02T23:55:44Z</time>
</trkpt>
<trkpt lat="51.0145453" lon="6.5809193">
<ele>48.7000000</ele>
<time>2009-09-02T23:56:30Z</time>
</trkpt>
<trkpt lat="51.0135270" lon="6.5807029">
<ele>49.2000000</ele>
<time>2009-09-02T23:57:12Z</time>
</trkpt>
<trkpt lat="51.0124038" lon="6.5804646">
<ele>50.6000000</ele>
<time>2009-09-02T23:57:57Z</time>
</trkpt>
<trkpt lat="51.0110793" lon="6.5800364">
<ele>50.6000000</ele>
<time>2009-09-02T23:58:51Z</time>
</trkpt>
<trkpt lat="51.0096722" lon="6.5793012">
<ele>52.0000000</ele>
<time>2009-09-02T23:59:50Z</time>
</trkpt>
<trkpt lat="51.0084611" lon="6.5782821">
<ele>51.6000000</ele>
<time>2009-09-03T00:00:45Z</time>
</trkpt>
<trkpt lat="51.0075535" lon="6.5773422">
<ele>52.0000000</ele>
<time>2009-09-03T00:01:29Z</time>
</trkpt>
<trkpt lat="51.0066730" lon="6.5761508">
<ele>52.0000000</ele>
<time>2009-09-03T00:02:15Z</time>
</trkpt>
<trkpt lat="51.0058285" lon="6.5747725">
<ele>51.1000000</ele>
<time>2009-09-03T00:03:03Z</time>
</trkpt>
<trkpt lat="51.0049176" lon="6.5730447">
<ele>53.0000000</ele>
<time>2009-09-03T00:04:00Z</time>
</trkpt>
<trkpt lat="51.0042712" lon="6.5717022">
<ele>54.0000000</ele>
<time>2009-09-03T00:04:43Z</time>
</trkpt>
<trkpt lat="51.0035262" lon="6.5700333">
<ele>53.0000000</ele>
<time>2009-09-03T00:05:34Z</time>
</trkpt>
<trkpt lat="51.0028769" lon="6.5685819">
<ele>58.3000000</ele>
<time>2009-09-03T00:06:19Z</time>
</trkpt>
<trkpt lat="51.0022853" lon="6.5671858">
<ele>56.9000000</ele>
<time>2009-09-03T00:07:01Z</time>
</trkpt>
<trkpt lat="51.0016960" lon="6.5657677">
<ele>60.2000000</ele>
<time>2009-09-03T00:07:44Z</time>
</trkpt>
<trkpt lat="51.0014270" lon="6.5657209">
<ele>61.2000000</ele>
<time>2009-09-03T00:07:55Z</time>
</trkpt>
<trkpt lat="51.0007772" lon="6.5659426">
<ele>57.3000000</ele>
<time>2009-09-03T00:08:22Z</time>
</trkpt>
<trkpt lat="51.0003926" lon="6.5658218">
<ele>55.9000000</ele>
<time>2009-09-03T00:08:37Z</time>
</trkpt>
<trkpt lat="50.9999669" lon="6.5650555">
<ele>57.8000000</ele>
<time>2009-09-03T00:09:03Z</time>
</trkpt>
<trkpt lat="50.9999563" lon="6.5646694">
<ele>54.5000000</ele>
<time>2009-09-03T00:09:13Z</time>
</trkpt>
<trkpt lat="51.0000525" lon="6.5645663">
<ele>54.0000000</ele>
<time>2009-09-03T00:09:18Z</time>
</trkpt>
<trkpt lat="51.0001611" lon="6.5644450">
<ele>53.0000000</ele>
<time>2009-09-03T00:09:23Z</time>
</trkpt>
<trkpt lat="51.0005927" lon="6.5639628">
<ele>50.6000000</ele>
<time>2009-09-03T00:09:44Z</time>
</trkpt>
<trkpt lat="51.0007643" lon="6.5637703">
<ele>51.6000000</ele>
<time>2009-09-03T00:09:52Z</time>
</trkpt>
<trkpt lat="51.0009417" lon="6.5635691">
<ele>51.6000000</ele>
<time>2009-09-03T00:10:01Z</time>
</trkpt>
<trkpt lat="51.0010996" lon="6.5633902">
<ele>52.0000000</ele>
<time>2009-09-03T00:10:09Z</time>
</trkpt>
<trkpt lat="51.0017385" lon="6.5626538">
<ele>53.0000000</ele>
<time>2009-09-03T00:10:40Z</time>
</trkpt>
<trkpt lat="51.0024077" lon="6.5619033">
<ele>53.0000000</ele>
<time>2009-09-03T00:11:13Z</time>
</trkpt>
<trkpt lat="51.0025360" lon="6.5617595">
<ele>53.0000000</ele>
<time>2009-09-03T00:11:20Z</time>
</trkpt>
<trkpt lat="51.0027232" lon="6.5615497">
<ele>51.6000000</ele>
<time>2009-09-03T00:11:29Z</time>
</trkpt>
<trkpt lat="51.0028373" lon="6.5614217">
<ele>51.6000000</ele>
<time>2009-09-03T00:11:34Z</time>
</trkpt>
<trkpt lat="51.0028874" lon="6.5610329">
<ele>51.6000000</ele>
<time>2009-09-03T00:11:44Z</time>
</trkpt>
<trkpt lat="51.0027010" lon="6.5606834">
<ele>54.0000000</ele>
<time>2009-09-03T00:11:56Z</time>
</trkpt>
<trkpt lat="51.0024238" lon="6.5601637">
<ele>54.0000000</ele>
<time>2009-09-03T00:12:13Z</time>
</trkpt>
<trkpt lat="51.0021441" lon="6.5596741">
<ele>55.9000000</ele>
<time>2009-09-03T00:12:30Z</time>
</trkpt>
<trkpt lat="51.0016941" lon="6.5587480">
<ele>59.7000000</ele>
<time>2009-09-03T00:12:59Z</time>
</trkpt>
<trkpt lat="51.0016179" lon="6.5585882">
<ele>60.7000000</ele>
<time>2009-09-03T00:13:04Z</time>
</trkpt>
<trkpt lat="51.0016681" lon="6.5585028">
<ele>61.2000000</ele>
<time>2009-09-03T00:13:07Z</time>
</trkpt>
<trkpt lat="51.0023682" lon="6.5577062">
<ele>59.7000000</ele>
<time>2009-09-03T00:13:42Z</time>
</trkpt>
<trkpt lat="51.0030976" lon="6.5570552">
<ele>56.9000000</ele>
<time>2009-09-03T00:14:15Z</time>
</trkpt>
<trkpt lat="51.0033006" lon="6.5569249">
<ele>55.4000000</ele>
<time>2009-09-03T00:14:24Z</time>
</trkpt>
<trkpt lat="51.0034507" lon="6.5568415">
<ele>54.9000000</ele>
<time>2009-09-03T00:14:30Z</time>
</trkpt>
<trkpt lat="51.0035960" lon="6.5565621">
<ele>57.3000000</ele>
<time>2009-09-03T00:14:39Z</time>
</trkpt>
<trkpt lat="51.0035200" lon="6.5562774">
<ele>57.8000000</ele>
<time>2009-09-03T00:14:47Z</time>
</trkpt>
<trkpt lat="51.0032536" lon="6.5548372">
<ele>58.8000000</ele>
<time>2009-09-03T00:15:25Z</time>
</trkpt>
<trkpt lat="51.0032301" lon="6.5547373">
<ele>58.8000000</ele>
<time>2009-09-03T00:15:28Z</time>
</trkpt>
<trkpt lat="51.0028607" lon="6.5531119">
<ele>61.2000000</ele>
<time>2009-09-03T00:16:11Z</time>
</trkpt>
<trkpt lat="51.0026238" lon="6.5522523">
<ele>61.7000000</ele>
<time>2009-09-03T00:16:35Z</time>
</trkpt>
<trkpt lat="51.0027513" lon="6.5521066">
<ele>60.7000000</ele>
<time>2009-09-03T00:16:41Z</time>
</trkpt>
<trkpt lat="51.0027684" lon="6.5517373">
<ele>62.1000000</ele>
<time>2009-09-03T00:16:50Z</time>
</trkpt>
<trkpt lat="51.0022892" lon="6.5506294">
<ele>68.4000000</ele>
<time>2009-09-03T00:17:24Z</time>
</trkpt>
<trkpt lat="51.0022115" lon="6.5503510">
<ele>69.8000000</ele>
<time>2009-09-03T00:17:32Z</time>
</trkpt>
<trkpt lat="51.0022564" lon="6.5502997">
<ele>69.8000000</ele>
<time>2009-09-03T00:17:34Z</time>
</trkpt>
<trkpt lat="51.0026969" lon="6.5498116">
<ele>66.9000000</ele>
<time>2009-09-03T00:17:56Z</time>
</trkpt>
<trkpt lat="51.0032266" lon="6.5492542">
<ele>64.5000000</ele>
<time>2009-09-03T00:18:21Z</time>
</trkpt>
<trkpt lat="51.0038631" lon="6.5485318">
<ele>63.1000000</ele>
<time>2009-09-03T00:18:52Z</time>
</trkpt>
<trkpt lat="51.0041791" lon="6.5482158">
<ele>63.1000000</ele>
<time>2009-09-03T00:19:07Z</time>
</trkpt>
<trkpt lat="51.0043661" lon="6.5480288">
<ele>62.6000000</ele>
<time>2009-09-03T00:19:16Z</time>
</trkpt>
<trkpt lat="51.0043101" lon="6.5477713">
<ele>61.2000000</ele>
<time>2009-09-03T00:19:23Z</time>
</trkpt>
<trkpt lat="51.0043023" lon="6.5477557">
<ele>64.1000000</ele>
<time>2009-09-03T00:19:24Z</time>
</trkpt>
<trkpt lat="51.0038399" lon="6.5467598">
<ele>68.4000000</ele>
<time>2009-09-03T00:19:55Z</time>
</trkpt>
<trkpt lat="51.0030083" lon="6.5448585">
<ele>71.8000000</ele>
<time>2009-09-03T00:20:53Z</time>
</trkpt>
<trkpt lat="51.0022829" lon="6.5432401">
<ele>74.2000000</ele>
<time>2009-09-03T00:21:43Z</time>
</trkpt>
<trkpt lat="51.0017610" lon="6.5417864">
<ele>75.6000000</ele>
<time>2009-09-03T00:22:25Z</time>
</trkpt>
<trkpt lat="51.0015821" lon="6.5399651">
<ele>76.6000000</ele>
<time>2009-09-03T00:23:12Z</time>
</trkpt>
<trkpt lat="51.0015540" lon="6.5372272">
<ele>78.0000000</ele>
<time>2009-09-03T00:24:21Z</time>
</trkpt>
<trkpt lat="51.0015094" lon="6.5347910">
<ele>79.0000000</ele>
<time>2009-09-03T00:25:22Z</time>
</trkpt>
<trkpt lat="51.0014997" lon="6.5331131">
<ele>82.8000000</ele>
<time>2009-09-03T00:26:04Z</time>
</trkpt>
<trkpt lat="51.0015521" lon="6.5312727">
<ele>88.1000000</ele>
<time>2009-09-03T00:26:51Z</time>
</trkpt>
<trkpt lat="51.0016321" lon="6.5298306">
<ele>85.7000000</ele>
<time>2009-09-03T00:27:27Z</time>
</trkpt>
<trkpt lat="51.0016429" lon="6.5295070">
<ele>86.7000000</ele>
<time>2009-09-03T00:27:35Z</time>
</trkpt>
<trkpt lat="51.0016485" lon="6.5293393">
<ele>87.1000000</ele>
<time>2009-09-03T00:27:40Z</time>
</trkpt>
<trkpt lat="51.0016245" lon="6.5281069">
<ele>82.8000000</ele>
<time>2009-09-03T00:28:11Z</time>
</trkpt>
<trkpt lat="51.0013623" lon="6.5268467">
<ele>78.5000000</ele>
<time>2009-09-03T00:28:44Z</time>
</trkpt>
<trkpt lat="51.0008051" lon="6.5251975">
<ele>79.0000000</ele>
<time>2009-09-03T00:29:31Z</time>
</trkpt>
<trkpt lat="51.0007716" lon="6.5251050">
<ele>79.4000000</ele>
<time>2009-09-03T00:29:34Z</time>
</trkpt>
<trkpt lat="51.0003033" lon="6.5238132">
<ele>77.5000000</ele>
<time>2009-09-03T00:30:12Z</time>
</trkpt>
<trkpt lat="50.9998719" lon="6.5226017">
<ele>78.0000000</ele>
<time>2009-09-03T00:30:47Z</time>
</trkpt>
<trkpt lat="50.9994737" lon="6.5214336">
<ele>78.5000000</ele>
<time>2009-09-03T00:31:20Z</time>
</trkpt>
<trkpt lat="50.9990014" lon="6.5200877">
<ele>79.4000000</ele>
<time>2009-09-03T00:31:59Z</time>
</trkpt>
<trkpt lat="50.9985407" lon="6.5187882">
<ele>78.5000000</ele>
<time>2009-09-03T00:32:36Z</time>
</trkpt>
<trkpt lat="50.9982423" lon="6.5179467">
<ele>79.0000000</ele>
<time>2009-09-03T00:33:01Z</time>
</trkpt>
<trkpt lat="50.9982173" lon="6.5178759">
<ele>79.4000000</ele>
<time>2009-09-03T00:33:03Z</time>
</trkpt>
<trkpt lat="50.9977895" lon="6.5166695">
<ele>81.4000000</ele>
<time>2009-09-03T00:33:38Z</time>
</trkpt>
<trkpt lat="50.9977722" lon="6.5162142">
<ele>81.8000000</ele>
<time>2009-09-03T00:33:49Z</time>
</trkpt>
<trkpt lat="50.9980401" lon="6.5158270">
<ele>82.8000000</ele>
<time>2009-09-03T00:34:04Z</time>
</trkpt>
<trkpt lat="50.9985322" lon="6.5145225">
<ele>80.9000000</ele>
<time>2009-09-03T00:34:42Z</time>
</trkpt>
<trkpt lat="50.9988151" lon="6.5122701">
<ele>82.8000000</ele>
<time>2009-09-03T00:35:40Z</time>
</trkpt>
<trkpt lat="50.9990409" lon="6.5105786">
<ele>82.3000000</ele>
<time>2009-09-03T00:36:23Z</time>
</trkpt>
<trkpt lat="50.9995568" lon="6.5094547">
<ele>80.9000000</ele>
<time>2009-09-03T00:36:59Z</time>
</trkpt>
<trkpt lat="51.0005871" lon="6.5079686">
<ele>82.8000000</ele>
<time>2009-09-03T00:37:54Z</time>
</trkpt>
<trkpt lat="51.0011769" lon="6.5067426">
<ele>87.1000000</ele>
<time>2009-09-03T00:38:33Z</time>
</trkpt>
<trkpt lat="51.0018655" lon="6.5053903">
<ele>86.2000000</ele>
<time>2009-09-03T00:39:17Z</time>
</trkpt>
<trkpt lat="51.0027993" lon="6.5037426">
<ele>85.2000000</ele>
<time>2009-09-03T00:40:13Z</time>
</trkpt>
<trkpt lat="51.0034010" lon="6.5022115">
<ele>85.2000000</ele>
<time>2009-09-03T00:40:58Z</time>
</trkpt>
<trkpt lat="51.0040061" lon="6.5003358">
<ele>85.7000000</ele>
<time>2009-09-03T00:41:51Z</time>
</trkpt>
<trkpt lat="51.0045165" lon="6.4984096">
<ele>87.6000000</ele>
<time>2009-09-03T00:42:44Z</time>
</trkpt>
<trkpt lat="51.0047794" lon="6.4964437">
<ele>88.1000000</ele>
<time>2009-09-03T00:43:35Z</time>
</trkpt>
<trkpt lat="51.0050315" lon="6.4942381">
<ele>88.6000000</ele>
<time>2009-09-03T00:44:31Z</time>
</trkpt>
<trkpt lat="51.0052699" lon="6.4921513">
<ele>88.6000000</ele>
<time>2009-09-03T00:45:24Z</time>
</trkpt>
<trkpt lat="51.0055733" lon="6.4902163">
<ele>88.1000000</ele>
<time>2009-09-03T00:46:15Z</time>
</trkpt>
<trkpt lat="51.0058647" lon="6.4894667">
<ele>85.2000000</ele>
<time>2009-09-03T00:46:37Z</time>
</trkpt>
<trkpt lat="51.0063367" lon="6.4883494">
<ele>88.6000000</ele>
<time>2009-09-03T00:47:11Z</time>
</trkpt>
<trkpt lat="51.0067980" lon="6.4873574">
<ele>91.5000000</ele>
<time>2009-09-03T00:47:42Z</time>
</trkpt>
<trkpt lat="51.0068047" lon="6.4867171">
<ele>94.3000000</ele>
<time>2009-09-03T00:47:58Z</time>
</trkpt>
<trkpt lat="51.0066829" lon="6.4863721">
<ele>92.9000000</ele>
<time>2009-09-03T00:48:08Z</time>
</trkpt>
<trkpt lat="51.0066827" lon="6.4861950">
<ele>90.5000000</ele>
<time>2009-09-03T00:48:12Z</time>
</trkpt>
<trkpt lat="51.0067722" lon="6.4860159">
<ele>89.5000000</ele>
<time>2009-09-03T00:48:18Z</time>
</trkpt>
<trkpt lat="51.0070209" lon="6.4855185">
<ele>90.0000000</ele>
<time>2009-09-03T00:48:34Z</time>
</trkpt>
<trkpt lat="51.0072948" lon="6.4853719">
<ele>91.9000000</ele>
<time>2009-09-03T00:48:46Z</time>
</trkpt>
<trkpt lat="51.0076311" lon="6.4854094">
<ele>92.4000000</ele>
<time>2009-09-03T00:48:59Z</time>
</trkpt>
<trkpt lat="51.0080624" lon="6.4851952">
<ele>95.8000000</ele>
<time>2009-09-03T00:49:17Z</time>
</trkpt>
<trkpt lat="51.0082299" lon="6.4847726">
<ele>97.2000000</ele>
<time>2009-09-03T00:49:30Z</time>
</trkpt>
<trkpt lat="51.0084716" lon="6.4831922">
<ele>95.3000000</ele>
<time>2009-09-03T00:50:11Z</time>
</trkpt>
<trkpt lat="51.0085709" lon="6.4829537">
<ele>92.9000000</ele>
<time>2009-09-03T00:50:18Z</time>
</trkpt>
<trkpt lat="51.0091138" lon="6.4826479">
<ele>91.5000000</ele>
<time>2009-09-03T00:50:41Z</time>
</trkpt>
<trkpt lat="51.0098804" lon="6.4822140">
<ele>97.2000000</ele>
<time>2009-09-03T00:51:14Z</time>
</trkpt>
<trkpt lat="51.0108519" lon="6.4810753">
<ele>96.7000000</ele>
<time>2009-09-03T00:52:02Z</time>
</trkpt>
<trkpt lat="51.0116952" lon="6.4802306">
<ele>97.7000000</ele>
<time>2009-09-03T00:52:42Z</time>
</trkpt>
<trkpt lat="51.0127943" lon="6.4795303">
<ele>98.2000000</ele>
<time>2009-09-03T00:53:29Z</time>
</trkpt>
<trkpt lat="51.0139045" lon="6.4787538">
<ele>100.1000000</ele>
<time>2009-09-03T00:54:18Z</time>
</trkpt>
<trkpt lat="51.0150434" lon="6.4778223">
<ele>103.0000000</ele>
<time>2009-09-03T00:55:09Z</time>
</trkpt>
<trkpt lat="51.0162396" lon="6.4768006">
<ele>105.9000000</ele>
<time>2009-09-03T00:56:04Z</time>
</trkpt>
<trkpt lat="51.0173574" lon="6.4758457">
<ele>106.8000000</ele>
<time>2009-09-03T00:56:54Z</time>
</trkpt>
<trkpt lat="51.0185344" lon="6.4748090">
<ele>107.3000000</ele>
<time>2009-09-03T00:57:48Z</time>
</trkpt>
<trkpt lat="51.0194584" lon="6.4737631">
<ele>108.3000000</ele>
<time>2009-09-03T00:58:34Z</time>
</trkpt>
<trkpt lat="51.0206656" lon="6.4723027">
<ele>109.2000000</ele>
<time>2009-09-03T00:59:34Z</time>
</trkpt>
<trkpt lat="51.0217489" lon="6.4709458">
<ele>110.2000000</ele>
<time>2009-09-03T01:00:30Z</time>
</trkpt>
<trkpt lat="51.0227131" lon="6.4695669">
<ele>113.1000000</ele>
<time>2009-09-03T01:01:21Z</time>
</trkpt>
<trkpt lat="51.0236383" lon="6.4682439">
<ele>114.5000000</ele>
<time>2009-09-03T01:02:11Z</time>
</trkpt>
<trkpt lat="51.0244590" lon="6.4670703">
<ele>114.1000000</ele>
<time>2009-09-03T01:02:55Z</time>
</trkpt>
<trkpt lat="51.0251594" lon="6.4660687">
<ele>113.1000000</ele>
<time>2009-09-03T01:03:33Z</time>
</trkpt>
<trkpt lat="51.0258174" lon="6.4651279">
<ele>110.7000000</ele>
<time>2009-09-03T01:04:09Z</time>
</trkpt>
<trkpt lat="51.0260109" lon="6.4648748">
<ele>110.2000000</ele>
<time>2009-09-03T01:04:19Z</time>
</trkpt>
<trkpt lat="51.0262796" lon="6.4645254">
<ele>109.2000000</ele>
<time>2009-09-03T01:04:33Z</time>
</trkpt>
<trkpt lat="51.0271461" lon="6.4632872">
<ele>108.3000000</ele>
<time>2009-09-03T01:05:19Z</time>
</trkpt>
<trkpt lat="51.0280690" lon="6.4618627">
<ele>106.8000000</ele>
<time>2009-09-03T01:06:11Z</time>
</trkpt>
<trkpt lat="51.0289697" lon="6.4604913">
<ele>107.3000000</ele>
<time>2009-09-03T01:07:01Z</time>
</trkpt>
<trkpt lat="51.0298350" lon="6.4592082">
<ele>108.3000000</ele>
<time>2009-09-03T01:07:48Z</time>
</trkpt>
<trkpt lat="51.0306944" lon="6.4583698">
<ele>110.2000000</ele>
<time>2009-09-03T01:08:28Z</time>
</trkpt>
<trkpt lat="51.0314686" lon="6.4577815">
<ele>109.2000000</ele>
<time>2009-09-03T01:09:03Z</time>
</trkpt>
<trkpt lat="51.0320748" lon="6.4573494">
<ele>104.4000000</ele>
<time>2009-09-03T01:09:29Z</time>
</trkpt>
<trkpt lat="51.0322477" lon="6.4572367">
<ele>104.9000000</ele>
<time>2009-09-03T01:09:37Z</time>
</trkpt>
<trkpt lat="51.0324676" lon="6.4570935">
<ele>104.9000000</ele>
<time>2009-09-03T01:09:46Z</time>
</trkpt>
<trkpt lat="51.0328424" lon="6.4568494">
<ele>105.9000000</ele>
<time>2009-09-03T01:10:02Z</time>
</trkpt>
<trkpt lat="51.0335798" lon="6.4563675">
<ele>105.9000000</ele>
<time>2009-09-03T01:10:34Z</time>
</trkpt>
<trkpt lat="51.0347658" lon="6.4555769">
<ele>102.5000000</ele>
<time>2009-09-03T01:11:26Z</time>
</trkpt>
<trkpt lat="51.0357412" lon="6.4548900">
<ele>104.4000000</ele>
<time>2009-09-03T01:12:09Z</time>
</trkpt>
<trkpt lat="51.0366398" lon="6.4542457">
<ele>103.5000000</ele>
<time>2009-09-03T01:12:48Z</time>
</trkpt>
<trkpt lat="51.0375346" lon="6.4535792">
<ele>99.2000000</ele>
<time>2009-09-03T01:13:28Z</time>
</trkpt>
<trkpt lat="51.0387039" lon="6.4526224">
<ele>97.2000000</ele>
<time>2009-09-03T01:14:20Z</time>
</trkpt>
<trkpt lat="51.0394025" lon="6.4518385">
<ele>95.8000000</ele>
<time>2009-09-03T01:14:54Z</time>
</trkpt>
<trkpt lat="51.0404248" lon="6.4501677">
<ele>99.6000000</ele>
<time>2009-09-03T01:15:53Z</time>
</trkpt>
<trkpt lat="51.0412280" lon="6.4482515">
<ele>101.6000000</ele>
<time>2009-09-03T01:16:51Z</time>
</trkpt>
<trkpt lat="51.0416987" lon="6.4464962">
<ele>102.0000000</ele>
<time>2009-09-03T01:17:39Z</time>
</trkpt>
<trkpt lat="51.0420139" lon="6.4450171">
<ele>101.1000000</ele>
<time>2009-09-03T01:18:18Z</time>
</trkpt>
<trkpt lat="51.0420944" lon="6.4445744">
<ele>101.6000000</ele>
<time>2009-09-03T01:18:30Z</time>
</trkpt>
<trkpt lat="51.0421371" lon="6.4443398">
<ele>103.5000000</ele>
<time>2009-09-03T01:18:36Z</time>
</trkpt>
<trkpt lat="51.0422153" lon="6.4444100">
<ele>104.4000000</ele>
<time>2009-09-03T01:18:40Z</time>
</trkpt>
<trkpt lat="51.0427067" lon="6.4448153">
<ele>102.5000000</ele>
<time>2009-09-03T01:19:02Z</time>
</trkpt>
<trkpt lat="51.0430913" lon="6.4450322">
<ele>99.2000000</ele>
<time>2009-09-03T01:19:18Z</time>
</trkpt>
<trkpt lat="51.0437416" lon="6.4449252">
<ele>94.8000000</ele>
<time>2009-09-03T01:19:44Z</time>
</trkpt>
<trkpt lat="51.0439065" lon="6.4448457">
<ele>93.9000000</ele>
<time>2009-09-03T01:19:51Z</time>
</trkpt>
<trkpt lat="51.0446102" lon="6.4441932">
<ele>91.5000000</ele>
<time>2009-09-03T01:20:24Z</time>
</trkpt>
<trkpt lat="51.0456002" lon="6.4432752">
<ele>89.5000000</ele>
<time>2009-09-03T01:21:10Z</time>
</trkpt>
<trkpt lat="51.0466670" lon="6.4422854">
<ele>87.1000000</ele>
<time>2009-09-03T01:21:59Z</time>
</trkpt>
<trkpt lat="51.0475041" lon="6.4415093">
<ele>88.1000000</ele>
<time>2009-09-03T01:22:38Z</time>
</trkpt>
<trkpt lat="51.0482140" lon="6.4408681">
<ele>87.6000000</ele>
<time>2009-09-03T01:23:11Z</time>
</trkpt>
<trkpt lat="51.0487877" lon="6.4403498">
<ele>87.1000000</ele>
<time>2009-09-03T01:23:37Z</time>
</trkpt>
<trkpt lat="51.0495744" lon="6.4399203">
<ele>85.7000000</ele>
<time>2009-09-03T01:24:10Z</time>
</trkpt>
<trkpt lat="51.0501156" lon="6.4396571">
<ele>85.2000000</ele>
<time>2009-09-03T01:24:33Z</time>
</trkpt>
<trkpt lat="51.0504424" lon="6.4393166">
<ele>84.3000000</ele>
<time>2009-09-03T01:24:49Z</time>
</trkpt>
<trkpt lat="51.0505970" lon="6.4390557">
<ele>85.7000000</ele>
<time>2009-09-03T01:24:58Z</time>
</trkpt>
<trkpt lat="51.0507829" lon="6.4388697">
<ele>87.1000000</ele>
<time>2009-09-03T01:25:06Z</time>
</trkpt>
<trkpt lat="51.0512023" lon="6.4386637">
<ele>89.1000000</ele>
<time>2009-09-03T01:25:24Z</time>
</trkpt>
<trkpt lat="51.0513816" lon="6.4387637">
<ele>88.6000000</ele>
<time>2009-09-03T01:25:32Z</time>
</trkpt>
<trkpt lat="51.0513967" lon="6.4389128">
<ele>88.1000000</ele>
<time>2009-09-03T01:25:35Z</time>
</trkpt>
<trkpt lat="51.0515115" lon="6.4400463">
<ele>83.8000000</ele>
<time>2009-09-03T01:26:04Z</time>
</trkpt>
<trkpt lat="51.0516687" lon="6.4415988">
<ele>83.3000000</ele>
<time>2009-09-03T01:26:44Z</time>
</trkpt>
<trkpt lat="51.0518933" lon="6.4432997">
<ele>83.8000000</ele>
<time>2009-09-03T01:27:28Z</time>
</trkpt>
<trkpt lat="51.0521864" lon="6.4450052">
<ele>85.2000000</ele>
<time>2009-09-03T01:28:12Z</time>
</trkpt>
<trkpt lat="51.0525433" lon="6.4467848">
<ele>83.3000000</ele>
<time>2009-09-03T01:28:59Z</time>
</trkpt>
<trkpt lat="51.0529487" lon="6.4484470">
<ele>84.7000000</ele>
<time>2009-09-03T01:29:44Z</time>
</trkpt>
<trkpt lat="51.0530568" lon="6.4488603">
<ele>84.3000000</ele>
<time>2009-09-03T01:29:55Z</time>
</trkpt>
<trkpt lat="51.0531474" lon="6.4491994">
<ele>84.3000000</ele>
<time>2009-09-03T01:30:05Z</time>
</trkpt>
<trkpt lat="51.0531664" lon="6.4492750">
<ele>85.2000000</ele>
<time>2009-09-03T01:30:07Z</time>
</trkpt>
<trkpt lat="51.0539362" lon="6.4495635">
<ele>83.8000000</ele>
<time>2009-09-03T01:30:38Z</time>
</trkpt>
<trkpt lat="51.0549993" lon="6.4499621">
<ele>83.3000000</ele>
<time>2009-09-03T01:31:22Z</time>
</trkpt>
<trkpt lat="51.0560099" lon="6.4505566">
<ele>84.7000000</ele>
<time>2009-09-03T01:32:05Z</time>
</trkpt>
<trkpt lat="51.0569841" lon="6.4517623">
<ele>84.3000000</ele>
<time>2009-09-03T01:32:55Z</time>
</trkpt>
<trkpt lat="51.0573355" lon="6.4520068">
<ele>83.8000000</ele>
<time>2009-09-03T01:33:10Z</time>
</trkpt>
<trkpt lat="51.0580172" lon="6.4520819">
<ele>82.8000000</ele>
<time>2009-09-03T01:33:37Z</time>
</trkpt>
<trkpt lat="51.0591657" lon="6.4522234">
<ele>82.3000000</ele>
<time>2009-09-03T01:34:23Z</time>
</trkpt>
<trkpt lat="51.0595334" lon="6.4522873">
<ele>82.3000000</ele>
<time>2009-09-03T01:34:38Z</time>
</trkpt>
<trkpt lat="51.0597660" lon="6.4524719">
<ele>85.2000000</ele>
<time>2009-09-03T01:34:49Z</time>
</trkpt>
<trkpt lat="51.0599798" lon="6.4534288">
<ele>83.8000000</ele>
<time>2009-09-03T01:35:14Z</time>
</trkpt>
<trkpt lat="51.0604115" lon="6.4553599">
<ele>84.3000000</ele>
<time>2009-09-03T01:36:06Z</time>
</trkpt>
<trkpt lat="51.0607731" lon="6.4569777">
<ele>84.3000000</ele>
<time>2009-09-03T01:36:49Z</time>
</trkpt>
<trkpt lat="51.0612003" lon="6.4588886">
<ele>87.1000000</ele>
<time>2009-09-03T01:37:40Z</time>
</trkpt>
<trkpt lat="51.0613632" lon="6.4596176">
<ele>87.6000000</ele>
<time>2009-09-03T01:37:59Z</time>
</trkpt>
<trkpt lat="51.0616535" lon="6.4596645">
<ele>86.7000000</ele>
<time>2009-09-03T01:38:11Z</time>
</trkpt>
<trkpt lat="51.0618044" lon="6.4596697">
<ele>86.2000000</ele>
<time>2009-09-03T01:38:17Z</time>
</trkpt>
<trkpt lat="51.0626469" lon="6.4596988">
<ele>84.3000000</ele>
<time>2009-09-03T01:38:51Z</time>
</trkpt>
<trkpt lat="51.0636822" lon="6.4597345">
<ele>83.8000000</ele>
<time>2009-09-03T01:39:32Z</time>
</trkpt>
<trkpt lat="51.0646946" lon="6.4597693">
<ele>79.0000000</ele>
<time>2009-09-03T01:40:13Z</time>
</trkpt>
<trkpt lat="51.0652685" lon="6.4597893">
<ele>81.4000000</ele>
<time>2009-09-03T01:40:36Z</time>
</trkpt>
<trkpt lat="51.0652685" lon="6.4597893">
<ele>80.4000000</ele>
<time>2009-09-03T01:40:37Z</time>
</trkpt>
<trkpt lat="51.0654346" lon="6.4592818">
<ele>81.8000000</ele>
<time>2009-09-03T01:40:51Z</time>
</trkpt>
<trkpt lat="51.0658585" lon="6.4579864">
<ele>81.4000000</ele>
<time>2009-09-03T01:41:28Z</time>
</trkpt>
<trkpt lat="51.0661646" lon="6.4570416">
<ele>80.9000000</ele>
<time>2009-09-03T01:41:54Z</time>
</trkpt>
<trkpt lat="51.0668022" lon="6.4550422">
<ele>80.9000000</ele>
<time>2009-09-03T01:42:51Z</time>
</trkpt>
<trkpt lat="51.0672901" lon="6.4535059">
<ele>79.0000000</ele>
<time>2009-09-03T01:43:34Z</time>
</trkpt>
<trkpt lat="51.0675308" lon="6.4533366">
<ele>78.5000000</ele>
<time>2009-09-03T01:43:45Z</time>
</trkpt>
<trkpt lat="51.0677377" lon="6.4535216">
<ele>79.0000000</ele>
<time>2009-09-03T01:43:54Z</time>
</trkpt>
<trkpt lat="51.0688216" lon="6.4544297">
<ele>79.0000000</ele>
<time>2009-09-03T01:44:43Z</time>
</trkpt>
<trkpt lat="51.0695929" lon="6.4550668">
<ele>77.0000000</ele>
<time>2009-09-03T01:45:18Z</time>
</trkpt>
<trkpt lat="51.0705330" lon="6.4558591">
<ele>76.6000000</ele>
<time>2009-09-03T01:46:01Z</time>
</trkpt>
<trkpt lat="51.0716544" lon="6.4568129">
<ele>76.6000000</ele>
<time>2009-09-03T01:46:52Z</time>
</trkpt>
<trkpt lat="51.0726028" lon="6.4575981">
<ele>75.6000000</ele>
<time>2009-09-03T01:47:34Z</time>
</trkpt>
<trkpt lat="51.0729567" lon="6.4578664">
<ele>77.0000000</ele>
<time>2009-09-03T01:47:50Z</time>
</trkpt>
<trkpt lat="51.0735808" lon="6.4584209">
<ele>75.6000000</ele>
<time>2009-09-03T01:48:19Z</time>
</trkpt>
<trkpt lat="51.0745349" lon="6.4591834">
<ele>76.1000000</ele>
<time>2009-09-03T01:49:01Z</time>
</trkpt>
<trkpt lat="51.0747205" lon="6.4593320">
<ele>76.1000000</ele>
<time>2009-09-03T01:49:10Z</time>
</trkpt>
<trkpt lat="51.0751082" lon="6.4594942">
<ele>75.6000000</ele>
<time>2009-09-03T01:49:26Z</time>
</trkpt>
<trkpt lat="51.0759304" lon="6.4595594">
<ele>74.6000000</ele>
<time>2009-09-03T01:49:59Z</time>
</trkpt>
<trkpt lat="51.0770210" lon="6.4596636">
<ele>74.2000000</ele>
<time>2009-09-03T01:50:42Z</time>
</trkpt>
<trkpt lat="51.0779019" lon="6.4597654">
<ele>73.2000000</ele>
<time>2009-09-03T01:51:18Z</time>
</trkpt>
<trkpt lat="51.0782888" lon="6.4597667">
<ele>73.7000000</ele>
<time>2009-09-03T01:51:33Z</time>
</trkpt>
<trkpt lat="51.0783340" lon="6.4598339">
<ele>74.6000000</ele>
<time>2009-09-03T01:51:36Z</time>
</trkpt>
<trkpt lat="51.0784822" lon="6.4599522">
<ele>74.6000000</ele>
<time>2009-09-03T01:51:43Z</time>
</trkpt>
<trkpt lat="51.0791908" lon="6.4600177">
<ele>76.1000000</ele>
<time>2009-09-03T01:52:11Z</time>
</trkpt>
<trkpt lat="51.0800388" lon="6.4601499">
<ele>77.0000000</ele>
<time>2009-09-03T01:52:45Z</time>
</trkpt>
<trkpt lat="51.0804850" lon="6.4601633">
<ele>78.5000000</ele>
<time>2009-09-03T01:53:03Z</time>
</trkpt>
<trkpt lat="51.0813160" lon="6.4600827">
<ele>78.0000000</ele>
<time>2009-09-03T01:53:36Z</time>
</trkpt>
<trkpt lat="51.0826410" lon="6.4598837">
<ele>81.4000000</ele>
<time>2009-09-03T01:54:30Z</time>
</trkpt>
<trkpt lat="51.0833892" lon="6.4597026">
<ele>83.8000000</ele>
<time>2009-09-03T01:55:00Z</time>
</trkpt>
<trkpt lat="51.0841817" lon="6.4594722">
<ele>83.3000000</ele>
<time>2009-09-03T01:55:32Z</time>
</trkpt>
<trkpt lat="51.0851351" lon="6.4591947">
<ele>83.3000000</ele>
<time>2009-09-03T01:56:11Z</time>
</trkpt>
<trkpt lat="51.0859986" lon="6.4589435">
<ele>85.2000000</ele>
<time>2009-09-03T01:56:46Z</time>
</trkpt>
<trkpt lat="51.0871664" lon="6.4586038">
<ele>87.1000000</ele>
<time>2009-09-03T01:57:34Z</time>
</trkpt>
<trkpt lat="51.0874404" lon="6.4587797">
<ele>89.1000000</ele>
<time>2009-09-03T01:57:46Z</time>
</trkpt>
<trkpt lat="51.0875126" lon="6.4590212">
<ele>88.6000000</ele>
<time>2009-09-03T01:57:52Z</time>
</trkpt>
<trkpt lat="51.0880560" lon="6.4605817">
<ele>91.0000000</ele>
<time>2009-09-03T01:58:37Z</time>
</trkpt>
<trkpt lat="51.0884806" lon="6.4617252">
<ele>91.9000000</ele>
<time>2009-09-03T01:59:11Z</time>
</trkpt>
<trkpt lat="51.0885388" lon="6.4620537">
<ele>90.5000000</ele>
<time>2009-09-03T01:59:19Z</time>
</trkpt>
<trkpt lat="51.0885823" lon="6.4620066">
<ele>92.9000000</ele>
<time>2009-09-03T01:59:21Z</time>
</trkpt>
<trkpt lat="51.0891818" lon="6.4612460">
<ele>86.7000000</ele>
<time>2009-09-03T01:59:52Z</time>
</trkpt>
<trkpt lat="51.0898431" lon="6.4604789">
<ele>90.0000000</ele>
<time>2009-09-03T02:00:25Z</time>
</trkpt>
<trkpt lat="51.0906383" lon="6.4597494">
<ele>86.2000000</ele>
<time>2009-09-03T02:01:01Z</time>
</trkpt>
<trkpt lat="51.0916178" lon="6.4592231">
<ele>80.9000000</ele>
<time>2009-09-03T02:01:43Z</time>
</trkpt>
<trkpt lat="51.0919553" lon="6.4590880">
<ele>82.3000000</ele>
<time>2009-09-03T02:01:57Z</time>
</trkpt>
<trkpt lat="51.0928321" lon="6.4587410">
<ele>81.4000000</ele>
<time>2009-09-03T02:02:33Z</time>
</trkpt>
<trkpt lat="51.0936796" lon="6.4584139">
<ele>80.4000000</ele>
<time>2009-09-03T02:03:08Z</time>
</trkpt>
<trkpt lat="51.0947893" lon="6.4578610">
<ele>81.8000000</ele>
<time>2009-09-03T02:03:54Z</time>
</trkpt>
<trkpt lat="51.0957715" lon="6.4571792">
<ele>83.3000000</ele>
<time>2009-09-03T02:04:37Z</time>
</trkpt>
<trkpt lat="51.0967501" lon="6.4563516">
<ele>80.4000000</ele>
<time>2009-09-03T02:05:22Z</time>
</trkpt>
<trkpt lat="51.0969864" lon="6.4561322">
<ele>81.8000000</ele>
<time>2009-09-03T02:05:33Z</time>
</trkpt>
<trkpt lat="51.0973531" lon="6.4557881">
<ele>81.8000000</ele>
<time>2009-09-03T02:05:50Z</time>
</trkpt>
<trkpt lat="51.0980751" lon="6.4551247">
<ele>81.8000000</ele>
<time>2009-09-03T02:06:23Z</time>
</trkpt>
<trkpt lat="51.0982477" lon="6.4549725">
<ele>81.8000000</ele>
<time>2009-09-03T02:06:31Z</time>
</trkpt>
<trkpt lat="51.0990109" lon="6.4542079">
<ele>83.3000000</ele>
<time>2009-09-03T02:07:07Z</time>
</trkpt>
<trkpt lat="51.0995952" lon="6.4534819">
<ele>79.9000000</ele>
<time>2009-09-03T02:07:37Z</time>
</trkpt>
<trkpt lat="51.0996812" lon="6.4533713">
<ele>79.0000000</ele>
<time>2009-09-03T02:07:41Z</time>
</trkpt>
<trkpt lat="51.0998509" lon="6.4532345">
<ele>79.4000000</ele>
<time>2009-09-03T02:07:49Z</time>
</trkpt>
<trkpt lat="51.1001625" lon="6.4530425">
<ele>79.9000000</ele>
<time>2009-09-03T02:08:02Z</time>
</trkpt>
<trkpt lat="51.1002928" lon="6.4529937">
<ele>80.4000000</ele>
<time>2009-09-03T02:08:07Z</time>
</trkpt>
<trkpt lat="51.1003069" lon="6.4530662">
<ele>81.4000000</ele>
<time>2009-09-03T02:08:09Z</time>
</trkpt>
<trkpt lat="51.1003112" lon="6.4530890">
<ele>83.3000000</ele>
<time>2009-09-03T02:08:10Z</time>
</trkpt>
<trkpt lat="51.1004283" lon="6.4536940">
<ele>82.3000000</ele>
<time>2009-09-03T02:08:26Z</time>
</trkpt>
<trkpt lat="51.1005913" lon="6.4550522">
<ele>78.5000000</ele>
<time>2009-09-03T02:09:01Z</time>
</trkpt>
<trkpt lat="51.1007011" lon="6.4565430">
<ele>78.5000000</ele>
<time>2009-09-03T02:09:38Z</time>
</trkpt>
<trkpt lat="51.1011333" lon="6.4577598">
<ele>79.9000000</ele>
<time>2009-09-03T02:10:13Z</time>
</trkpt>
<trkpt lat="51.1014265" lon="6.4580529">
<ele>80.9000000</ele>
<time>2009-09-03T02:10:27Z</time>
</trkpt>
<trkpt lat="51.1021323" lon="6.4588930">
<ele>83.3000000</ele>
<time>2009-09-03T02:11:03Z</time>
</trkpt>
<trkpt lat="51.1024177" lon="6.4595512">
<ele>83.3000000</ele>
<time>2009-09-03T02:11:23Z</time>
</trkpt>
<trkpt lat="51.1031643" lon="6.4604814">
<ele>85.7000000</ele>
<time>2009-09-03T02:12:01Z</time>
</trkpt>
<trkpt lat="51.1039552" lon="6.4613082">
<ele>85.2000000</ele>
<time>2009-09-03T02:12:38Z</time>
</trkpt>
<trkpt lat="51.1040830" lon="6.4613150">
<ele>85.2000000</ele>
<time>2009-09-03T02:12:44Z</time>
</trkpt>
<trkpt lat="51.1041254" lon="6.4617900">
<ele>86.2000000</ele>
<time>2009-09-03T02:12:56Z</time>
</trkpt>
<trkpt lat="51.1041581" lon="6.4621385">
<ele>85.7000000</ele>
<time>2009-09-03T02:13:04Z</time>
</trkpt>
<trkpt lat="51.1042552" lon="6.4630824">
<ele>86.2000000</ele>
<time>2009-09-03T02:13:29Z</time>
</trkpt>
<trkpt lat="51.1042942" lon="6.4632505">
<ele>87.1000000</ele>
<time>2009-09-03T02:13:33Z</time>
</trkpt>
<trkpt lat="51.1043271" lon="6.4633099">
<ele>87.6000000</ele>
<time>2009-09-03T02:13:35Z</time>
</trkpt>
<trkpt lat="51.1044924" lon="6.4636073">
<ele>88.6000000</ele>
<time>2009-09-03T02:13:45Z</time>
</trkpt>
<trkpt lat="51.1047077" lon="6.4641237">
<ele>91.0000000</ele>
<time>2009-09-03T02:14:01Z</time>
</trkpt>
<trkpt lat="51.1047077" lon="6.4644524">
<ele>90.0000000</ele>
<time>2009-09-03T02:14:09Z</time>
</trkpt>
<trkpt lat="51.1046613" lon="6.4647881">
<ele>91.9000000</ele>
<time>2009-09-03T02:14:17Z</time>
</trkpt>
<trkpt lat="51.1045123" lon="6.4654055">
<ele>88.1000000</ele>
<time>2009-09-03T02:14:34Z</time>
</trkpt>
<trkpt lat="51.1043262" lon="6.4661377">
<ele>87.1000000</ele>
<time>2009-09-03T02:14:54Z</time>
</trkpt>
<trkpt lat="51.1042191" lon="6.4665962">
<ele>87.1000000</ele>
<time>2009-09-03T02:15:06Z</time>
</trkpt>
<trkpt lat="51.1041486" lon="6.4669330">
<ele>86.7000000</ele>
<time>2009-09-03T02:15:15Z</time>
</trkpt>
<trkpt lat="51.1038502" lon="6.4685008">
<ele>86.7000000</ele>
<time>2009-09-03T02:15:56Z</time>
</trkpt>
<trkpt lat="51.1036494" lon="6.4699311">
<ele>84.3000000</ele>
<time>2009-09-03T02:16:33Z</time>
</trkpt>
<trkpt lat="51.1035490" lon="6.4715208">
<ele>83.3000000</ele>
<time>2009-09-03T02:17:13Z</time>
</trkpt>
<trkpt lat="51.1036783" lon="6.4721069">
<ele>82.8000000</ele>
<time>2009-09-03T02:17:29Z</time>
</trkpt>
<trkpt lat="51.1041523" lon="6.4726233">
<ele>82.8000000</ele>
<time>2009-09-03T02:17:52Z</time>
</trkpt>
<trkpt lat="51.1048278" lon="6.4736491">
<ele>81.8000000</ele>
<time>2009-09-03T02:18:29Z</time>
</trkpt>
<trkpt lat="51.1056819" lon="6.4748238">
<ele>83.3000000</ele>
<time>2009-09-03T02:19:15Z</time>
</trkpt>
<trkpt lat="51.1063946" lon="6.4757952">
<ele>83.8000000</ele>
<time>2009-09-03T02:19:52Z</time>
</trkpt>
<trkpt lat="51.1069028" lon="6.4767663">
<ele>83.3000000</ele>
<time>2009-09-03T02:20:24Z</time>
</trkpt>
<trkpt lat="51.1073589" lon="6.4780985">
<ele>79.9000000</ele>
<time>2009-09-03T02:21:02Z</time>
</trkpt>
<trkpt lat="51.1079859" lon="6.4793862">
<ele>78.5000000</ele>
<time>2009-09-03T02:21:43Z</time>
</trkpt>
<trkpt lat="51.1084068" lon="6.4800880">
<ele>79.4000000</ele>
<time>2009-09-03T02:22:07Z</time>
</trkpt>
<trkpt lat="51.1084253" lon="6.4801187">
<ele>79.0000000</ele>
<time>2009-09-03T02:22:08Z</time>
</trkpt>
<trkpt lat="51.1081731" lon="6.4805815">
<ele>80.9000000</ele>
<time>2009-09-03T02:22:24Z</time>
</trkpt>
<trkpt lat="51.1073654" lon="6.4809652">
<ele>84.3000000</ele>
<time>2009-09-03T02:22:58Z</time>
</trkpt>
<trkpt lat="51.1064100" lon="6.4814191">
<ele>85.2000000</ele>
<time>2009-09-03T02:23:37Z</time>
</trkpt>
<trkpt lat="51.1054227" lon="6.4818880">
<ele>86.2000000</ele>
<time>2009-09-03T02:24:19Z</time>
</trkpt>
<trkpt lat="51.1045400" lon="6.4823073">
<ele>84.7000000</ele>
<time>2009-09-03T02:24:56Z</time>
</trkpt>
<trkpt lat="51.1037861" lon="6.4826654">
<ele>83.3000000</ele>
<time>2009-09-03T02:25:27Z</time>
</trkpt>
<trkpt lat="51.1035728" lon="6.4827668">
<ele>81.8000000</ele>
<time>2009-09-03T02:25:36Z</time>
</trkpt>
<trkpt lat="51.1035360" lon="6.4827843">
<ele>81.8000000</ele>
<time>2009-09-03T02:25:37Z</time>
</trkpt>
<trkpt lat="51.1032395" lon="6.4829728">
<ele>80.9000000</ele>
<time>2009-09-03T02:25:50Z</time>
</trkpt>
<trkpt lat="51.1032346" lon="6.4830009">
<ele>82.3000000</ele>
<time>2009-09-03T02:25:51Z</time>
</trkpt>
<trkpt lat="51.1031505" lon="6.4834846">
<ele>83.3000000</ele>
<time>2009-09-03T02:26:04Z</time>
</trkpt>
<trkpt lat="51.1028844" lon="6.4850147">
<ele>84.3000000</ele>
<time>2009-09-03T02:26:44Z</time>
</trkpt>
<trkpt lat="51.1025979" lon="6.4867700">
<ele>82.3000000</ele>
<time>2009-09-03T02:27:29Z</time>
</trkpt>
<trkpt lat="51.1023390" lon="6.4884645">
<ele>81.4000000</ele>
<time>2009-09-03T02:28:13Z</time>
</trkpt>
<trkpt lat="51.1021323" lon="6.4897172">
<ele>78.0000000</ele>
<time>2009-09-03T02:28:46Z</time>
</trkpt>
<trkpt lat="51.1018827" lon="6.4911574">
<ele>75.6000000</ele>
<time>2009-09-03T02:29:23Z</time>
</trkpt>
<trkpt lat="51.1016137" lon="6.4924196">
<ele>72.7000000</ele>
<time>2009-09-03T02:29:57Z</time>
</trkpt>
<trkpt lat="51.1013554" lon="6.4930786">
<ele>73.7000000</ele>
<time>2009-09-03T02:30:16Z</time>
</trkpt>
<trkpt lat="51.1008551" lon="6.4943541">
<ele>73.7000000</ele>
<time>2009-09-03T02:30:54Z</time>
</trkpt>
<trkpt lat="51.1004756" lon="6.4948843">
<ele>73.7000000</ele>
<time>2009-09-03T02:31:14Z</time>
</trkpt>
<trkpt lat="51.0998419" lon="6.4957505">
<ele>71.3000000</ele>
<time>2009-09-03T02:31:48Z</time>
</trkpt>
<trkpt lat="51.0992495" lon="6.4965396">
<ele>68.4000000</ele>
<time>2009-09-03T02:32:18Z</time>
</trkpt>
<trkpt lat="51.0986256" lon="6.4974316">
<ele>66.9000000</ele>
<time>2009-09-03T02:32:52Z</time>
</trkpt>
<trkpt lat="51.0986095" lon="6.4974706">
<ele>0.0000000</ele>
<time>2009-09-03T02:32:53Z</time>
</trkpt>
<trkpt lat="51.0984837" lon="6.4974926">
<ele>0.0000000</ele>
<time>2009-09-03T02:32:58Z</time>
</trkpt>
<trkpt lat="51.0983220" lon="6.4981725">
<ele>0.0000000</ele>
<time>2009-09-03T02:33:17Z</time>
</trkpt>
<trkpt lat="51.0983399" lon="6.4986550">
<ele>0.0000000</ele>
<time>2009-09-03T02:33:29Z</time>
</trkpt>
<trkpt lat="51.0987173" lon="6.4996420">
<ele>0.0000000</ele>
<time>2009-09-03T02:33:58Z</time>
</trkpt>
<trkpt lat="51.0988789" lon="6.5003000">
<ele>0.0000000</ele>
<time>2009-09-03T02:34:15Z</time>
</trkpt>
<trkpt lat="51.0988943" lon="6.5002846">
<ele>79.0000000</ele>
<time>2009-09-03T02:34:16Z</time>
</trkpt>
<trkpt lat="51.0990208" lon="6.5006644">
<ele>79.0000000</ele>
<time>2009-09-03T02:34:27Z</time>
</trkpt>
<trkpt lat="51.0991576" lon="6.5010089">
<ele>76.6000000</ele>
<time>2009-09-03T02:34:37Z</time>
</trkpt>
<trkpt lat="51.0993107" lon="6.5013808">
<ele>73.7000000</ele>
<time>2009-09-03T02:34:48Z</time>
</trkpt>
<trkpt lat="51.0996972" lon="6.5020574">
<ele>71.8000000</ele>
<time>2009-09-03T02:35:11Z</time>
</trkpt>
<trkpt lat="51.1001029" lon="6.5027209">
<ele>69.4000000</ele>
<time>2009-09-03T02:35:35Z</time>
</trkpt>
<trkpt lat="51.1005501" lon="6.5033914">
<ele>68.9000000</ele>
<time>2009-09-03T02:35:59Z</time>
</trkpt>
<trkpt lat="51.1008883" lon="6.5039921">
<ele>69.4000000</ele>
<time>2009-09-03T02:36:20Z</time>
</trkpt>
<trkpt lat="51.1010171" lon="6.5042282">
<ele>70.8000000</ele>
<time>2009-09-03T02:36:27Z</time>
</trkpt>
<trkpt lat="51.1011606" lon="6.5044453">
<ele>0.0000000</ele>
<time>2009-09-03T02:36:35Z</time>
</trkpt>
<trkpt lat="51.1015020" lon="6.5052568">
<ele>0.0000000</ele>
<time>2009-09-03T02:37:00Z</time>
</trkpt>
<trkpt lat="51.1025620" lon="6.5081959">
<ele>0.0000000</ele>
<time>2009-09-03T02:38:25Z</time>
</trkpt>
<trkpt lat="51.1031189" lon="6.5095995">
<ele>0.0000000</ele>
<time>2009-09-03T02:39:07Z</time>
</trkpt>
<trkpt lat="51.1035322" lon="6.5112006">
<ele>0.0000000</ele>
<time>2009-09-03T02:39:50Z</time>
</trkpt>
<trkpt lat="51.1035142" lon="6.5112006">
<ele>0.0000000</ele>
<time>2009-09-03T02:39:51Z</time>
</trkpt>
<trkpt lat="51.1048617" lon="6.5103233">
<ele>0.0000000</ele>
<time>2009-09-03T02:40:49Z</time>
</trkpt>
<trkpt lat="51.1055444" lon="6.5098627">
<ele>0.0000000</ele>
<time>2009-09-03T02:41:19Z</time>
</trkpt>
<trkpt lat="51.1058858" lon="6.5098188">
<ele>0.0000000</ele>
<time>2009-09-03T02:41:33Z</time>
</trkpt>
<trkpt lat="51.1058858" lon="6.5102356">
<ele>0.0000000</ele>
<time>2009-09-03T02:41:43Z</time>
</trkpt>
<trkpt lat="51.1059037" lon="6.5139203">
<ele>0.0000000</ele>
<time>2009-09-03T02:43:16Z</time>
</trkpt>
<trkpt lat="51.1064967" lon="6.5184604">
<ele>0.0000000</ele>
<time>2009-09-03T02:45:12Z</time>
</trkpt>
<trkpt lat="51.1069638" lon="6.5202370">
<ele>0.0000000</ele>
<time>2009-09-03T02:46:01Z</time>
</trkpt>
<trkpt lat="51.1079342" lon="6.5217938">
<ele>0.0000000</ele>
<time>2009-09-03T02:46:56Z</time>
</trkpt>
<trkpt lat="51.1082217" lon="6.5214429">
<ele>0.0000000</ele>
<time>2009-09-03T02:47:10Z</time>
</trkpt>
<trkpt lat="51.1085451" lon="6.5218158">
<ele>0.0000000</ele>
<time>2009-09-03T02:47:26Z</time>
</trkpt>
<trkpt lat="51.1088326" lon="6.5219912">
<ele>0.0000000</ele>
<time>2009-09-03T02:47:39Z</time>
</trkpt>
<trkpt lat="51.1104496" lon="6.5226712">
<ele>0.0000000</ele>
<time>2009-09-03T02:48:46Z</time>
</trkpt>
<trkpt lat="51.1111323" lon="6.5231317">
<ele>0.0000000</ele>
<time>2009-09-03T02:49:15Z</time>
</trkpt>
<trkpt lat="51.1135578" lon="6.5221666">
<ele>0.0000000</ele>
<time>2009-09-03T02:50:55Z</time>
</trkpt>
<trkpt lat="51.1139710" lon="6.5223202">
<ele>0.0000000</ele>
<time>2009-09-03T02:51:12Z</time>
</trkpt>
<trkpt lat="51.1139889" lon="6.5223202">
<ele>0.0000000</ele>
<time>2009-09-03T02:51:13Z</time>
</trkpt>
<trkpt lat="51.1152646" lon="6.5299963">
<ele>0.0000000</ele>
<time>2009-09-03T02:54:33Z</time>
</trkpt>
<trkpt lat="51.1166840" lon="6.5399319">
<ele>0.0000000</ele>
<time>2009-09-03T02:58:49Z</time>
</trkpt>
<trkpt lat="51.1174389" lon="6.5427169">
<ele>0.0000000</ele>
<time>2009-09-03T03:00:05Z</time>
</trkpt>
<trkpt lat="51.1182294" lon="6.5462919">
<ele>0.0000000</ele>
<time>2009-09-03T03:01:40Z</time>
</trkpt>
<trkpt lat="51.1227569" lon="6.5407868">
<ele>0.0000000</ele>
<time>2009-09-03T03:05:28Z</time>
</trkpt>
<trkpt lat="51.1254878" lon="6.5409842">
<ele>0.0000000</ele>
<time>2009-09-03T03:07:18Z</time>
</trkpt>
<trkpt lat="51.1261885" lon="6.5413790">
<ele>0.0000000</ele>
<time>2009-09-03T03:07:47Z</time>
</trkpt>
<trkpt lat="51.1275184" lon="6.5396024">
<ele>0.0000000</ele>
<time>2009-09-03T03:08:57Z</time>
</trkpt>
<trkpt lat="51.1311297" lon="6.5428265">
<ele>0.0000000</ele>
<time>2009-09-03T03:11:43Z</time>
</trkpt>
<trkpt lat="51.1329083" lon="6.5449979">
<ele>0.0000000</ele>
<time>2009-09-03T03:13:12Z</time>
</trkpt>
<trkpt lat="51.1334832" lon="6.5456778">
<ele>0.0000000</ele>
<time>2009-09-03T03:13:41Z</time>
</trkpt>
<trkpt lat="51.1344714" lon="6.5464454">
<ele>0.0000000</ele>
<time>2009-09-03T03:14:25Z</time>
</trkpt>
<trkpt lat="51.1349746" lon="6.5474983">
<ele>0.0000000</ele>
<time>2009-09-03T03:14:58Z</time>
</trkpt>
<trkpt lat="51.1352621" lon="6.5477833">
<ele>0.0000000</ele>
<time>2009-09-03T03:15:12Z</time>
</trkpt>
<trkpt lat="51.1356752" lon="6.5479369">
<ele>0.0000000</ele>
<time>2009-09-03T03:15:29Z</time>
</trkpt>
<trkpt lat="51.1359627" lon="6.5483097">
<ele>0.0000000</ele>
<time>2009-09-03T03:15:44Z</time>
</trkpt>
<trkpt lat="51.1364839" lon="6.5479369">
<ele>0.0000000</ele>
<time>2009-09-03T03:16:06Z</time>
</trkpt>
<trkpt lat="51.1373823" lon="6.5470157">
<ele>0.0000000</ele>
<time>2009-09-03T03:16:49Z</time>
</trkpt>
<trkpt lat="51.1379213" lon="6.5459848">
<ele>0.0000000</ele>
<time>2009-09-03T03:17:23Z</time>
</trkpt>
<trkpt lat="51.1384063" lon="6.5454146">
<ele>0.0000000</ele>
<time>2009-09-03T03:17:47Z</time>
</trkpt>
<trkpt lat="51.1390711" lon="6.5448224">
<ele>0.0000000</ele>
<time>2009-09-03T03:18:17Z</time>
</trkpt>
<trkpt lat="51.1404906" lon="6.5442960">
<ele>0.0000000</ele>
<time>2009-09-03T03:19:16Z</time>
</trkpt>
<trkpt lat="51.1415866" lon="6.5438355">
<ele>0.0000000</ele>
<time>2009-09-03T03:20:01Z</time>
</trkpt>
<trkpt lat="51.1427365" lon="6.5436381">
<ele>0.0000000</ele>
<time>2009-09-03T03:20:48Z</time>
</trkpt>
<trkpt lat="51.1432395" lon="6.5435723">
<ele>0.0000000</ele>
<time>2009-09-03T03:21:08Z</time>
</trkpt>
<trkpt lat="51.1432575" lon="6.5436161">
<ele>0.0000000</ele>
<time>2009-09-03T03:21:09Z</time>
</trkpt>
<trkpt lat="51.1446409" lon="6.5445812">
<ele>0.0000000</ele>
<time>2009-09-03T03:22:09Z</time>
</trkpt>
<trkpt lat="51.1452158" lon="6.5447566">
<ele>0.0000000</ele>
<time>2009-09-03T03:22:33Z</time>
</trkpt>
<trkpt lat="51.1459344" lon="6.5448882">
<ele>0.0000000</ele>
<time>2009-09-03T03:23:02Z</time>
</trkpt>
<trkpt lat="51.1465274" lon="6.5454584">
<ele>0.0000000</ele>
<time>2009-09-03T03:23:30Z</time>
</trkpt>
<trkpt lat="51.1468328" lon="6.5461822">
<ele>0.0000000</ele>
<time>2009-09-03T03:23:52Z</time>
</trkpt>
<trkpt lat="51.1471562" lon="6.5470815">
<ele>0.0000000</ele>
<time>2009-09-03T03:24:18Z</time>
</trkpt>
<trkpt lat="51.1471921" lon="6.5470815">
<ele>0.0000000</ele>
<time>2009-09-03T03:24:19Z</time>
</trkpt>
<trkpt lat="51.1481984" lon="6.5482656">
<ele>0.0000000</ele>
<time>2009-09-03T03:25:09Z</time>
</trkpt>
<trkpt lat="51.1474797" lon="6.5494938">
<ele>0.0000000</ele>
<time>2009-09-03T03:25:52Z</time>
</trkpt>
<trkpt lat="51.1473180" lon="6.5500202">
<ele>0.0000000</ele>
<time>2009-09-03T03:26:06Z</time>
</trkpt>
<trkpt lat="51.1463658" lon="6.5533321">
<ele>0.0000000</ele>
<time>2009-09-03T03:27:38Z</time>
</trkpt>
<trkpt lat="51.1514862" lon="6.5601971">
<ele>0.0000000</ele>
<time>2009-09-03T03:32:06Z</time>
</trkpt>
<trkpt lat="51.1585113" lon="6.5699567">
<ele>0.0000000</ele>
<time>2009-09-03T03:38:19Z</time>
</trkpt>
<trkpt lat="51.1609368" lon="6.5732905">
<ele>0.0000000</ele>
<time>2009-09-03T03:40:27Z</time>
</trkpt>
<trkpt lat="51.1609548" lon="6.5732686">
<ele>0.0000000</ele>
<time>2009-09-03T03:40:28Z</time>
</trkpt>
<trkpt lat="51.1613141" lon="6.5739924">
<ele>0.0000000</ele>
<time>2009-09-03T03:40:51Z</time>
</trkpt>
<trkpt lat="51.1621228" lon="6.5731587">
<ele>0.0000000</ele>
<time>2009-09-03T03:41:29Z</time>
</trkpt>
<trkpt lat="51.1625900" lon="6.5724568">
<ele>0.0000000</ele>
<time>2009-09-03T03:41:55Z</time>
</trkpt>
<trkpt lat="51.1630391" lon="6.5728736">
<ele>0.0000000</ele>
<time>2009-09-03T03:42:16Z</time>
</trkpt>
<trkpt lat="51.1635421" lon="6.5737947">
<ele>0.0000000</ele>
<time>2009-09-03T03:42:47Z</time>
</trkpt>
<trkpt lat="51.1642069" lon="6.5756590">
<ele>0.0000000</ele>
<time>2009-09-03T03:43:40Z</time>
</trkpt>
<trkpt lat="51.1653928" lon="6.5756810">
<ele>0.0000000</ele>
<time>2009-09-03T03:44:28Z</time>
</trkpt>
<trkpt lat="51.1663271" lon="6.5775891">
<ele>0.0000000</ele>
<time>2009-09-03T03:45:29Z</time>
</trkpt>
<trkpt lat="51.1671000" lon="6.5790363">
<ele>0.0000000</ele>
<time>2009-09-03T03:46:16Z</time>
</trkpt>
<trkpt lat="51.1675851" lon="6.5804401">
<ele>0.0000000</ele>
<time>2009-09-03T03:46:57Z</time>
</trkpt>
<trkpt lat="51.1682498" lon="6.5798917">
<ele>0.0000000</ele>
<time>2009-09-03T03:47:27Z</time>
</trkpt>
<trkpt lat="51.1688428" lon="6.5797163">
<ele>0.0000000</ele>
<time>2009-09-03T03:47:51Z</time>
</trkpt>
<trkpt lat="51.1691302" lon="6.5794969">
<ele>0.0000000</ele>
<time>2009-09-03T03:48:03Z</time>
</trkpt>
<trkpt lat="51.1701543" lon="6.5782687">
<ele>0.0000000</ele>
<time>2009-09-03T03:48:55Z</time>
</trkpt>
<trkpt lat="51.1714479" lon="6.5772818">
<ele>0.0000000</ele>
<time>2009-09-03T03:49:52Z</time>
</trkpt>
<trkpt lat="51.1714658" lon="6.5772818">
<ele>0.0000000</ele>
<time>2009-09-03T03:49:53Z</time>
</trkpt>
<trkpt lat="51.1724181" lon="6.5767554">
<ele>0.0000000</ele>
<time>2009-09-03T03:50:33Z</time>
</trkpt>
<trkpt lat="51.1724540" lon="6.5767334">
<ele>0.0000000</ele>
<time>2009-09-03T03:50:35Z</time>
</trkpt>
<trkpt lat="51.1739452" lon="6.5760535">
<ele>0.0000000</ele>
<time>2009-09-03T03:51:37Z</time>
</trkpt>
<trkpt lat="51.1753107" lon="6.5755491">
<ele>0.0000000</ele>
<time>2009-09-03T03:52:33Z</time>
</trkpt>
<trkpt lat="51.1761191" lon="6.5750446">
<ele>0.0000000</ele>
<time>2009-09-03T03:53:08Z</time>
</trkpt>
<trkpt lat="51.1774489" lon="6.5737729">
<ele>0.0000000</ele>
<time>2009-09-03T03:54:10Z</time>
</trkpt>
<trkpt lat="51.1780598" lon="6.5733562">
<ele>0.0000000</ele>
<time>2009-09-03T03:54:36Z</time>
</trkpt>
<trkpt lat="51.1806649" lon="6.5719086">
<ele>0.0000000</ele>
<time>2009-09-03T03:56:27Z</time>
</trkpt>
<trkpt lat="51.1842043" lon="6.5678291">
<ele>0.0000000</ele>
<time>2009-09-03T03:59:22Z</time>
</trkpt>
<trkpt lat="51.1868097" lon="6.5665134">
<ele>0.0000000</ele>
<time>2009-09-03T04:01:11Z</time>
</trkpt>
<trkpt lat="51.1874206" lon="6.5657676">
<ele>0.0000000</ele>
<time>2009-09-03T04:01:42Z</time>
</trkpt>
<trkpt lat="51.1886961" lon="6.5647149">
<ele>0.0000000</ele>
<time>2009-09-03T04:02:39Z</time>
</trkpt>
<trkpt lat="51.1891813" lon="6.5640130">
<ele>0.0000000</ele>
<time>2009-09-03T04:03:05Z</time>
</trkpt>
<trkpt lat="51.1888579" lon="6.5628506">
<ele>0.0000000</ele>
<time>2009-09-03T04:03:37Z</time>
</trkpt>
<trkpt lat="51.1894867" lon="6.5621926">
<ele>0.0000000</ele>
<time>2009-09-03T04:04:07Z</time>
</trkpt>
<trkpt lat="51.1903671" lon="6.5604160">
<ele>0.0000000</ele>
<time>2009-09-03T04:05:04Z</time>
</trkpt>
<trkpt lat="51.1912833" lon="6.5602186">
<ele>0.0000000</ele>
<time>2009-09-03T04:05:41Z</time>
</trkpt>
<trkpt lat="51.1913732" lon="6.5602186">
<ele>0.0000000</ele>
<time>2009-09-03T04:05:45Z</time>
</trkpt>
<trkpt lat="51.1927926" lon="6.5599116">
<ele>0.0000000</ele>
<time>2009-09-03T04:06:42Z</time>
</trkpt>
<trkpt lat="51.1939963" lon="6.5596923">
<ele>0.0000000</ele>
<time>2009-09-03T04:07:31Z</time>
</trkpt>
<trkpt lat="51.1955774" lon="6.5588588">
<ele>0.0000000</ele>
<time>2009-09-03T04:08:37Z</time>
</trkpt>
<trkpt lat="51.1970506" lon="6.5582447">
<ele>0.0000000</ele>
<time>2009-09-03T04:09:38Z</time>
</trkpt>
<trkpt lat="51.1982007" lon="6.5578938">
<ele>0.0000000</ele>
<time>2009-09-03T04:10:25Z</time>
</trkpt>
<trkpt lat="51.1999255" lon="6.5580911">
<ele>0.0000000</ele>
<time>2009-09-03T04:11:34Z</time>
</trkpt>
<trkpt lat="51.2008777" lon="6.5583324">
<ele>0.0000000</ele>
<time>2009-09-03T04:12:13Z</time>
</trkpt>
<trkpt lat="51.2022970" lon="6.5584859">
<ele>0.0000000</ele>
<time>2009-09-03T04:13:10Z</time>
</trkpt>
<trkpt lat="51.2027103" lon="6.5586395">
<ele>0.0000000</ele>
<time>2009-09-03T04:13:27Z</time>
</trkpt>
<trkpt lat="51.2027642" lon="6.5586395">
<ele>0.0000000</ele>
<time>2009-09-03T04:13:29Z</time>
</trkpt>
<trkpt lat="51.2050642" lon="6.5592755">
<ele>0.0000000</ele>
<time>2009-09-03T04:15:03Z</time>
</trkpt>
<trkpt lat="51.2054236" lon="6.5593194">
<ele>0.0000000</ele>
<time>2009-09-03T04:15:17Z</time>
</trkpt>
<trkpt lat="51.2058008" lon="6.5599993">
<ele>0.0000000</ele>
<time>2009-09-03T04:15:40Z</time>
</trkpt>
<trkpt lat="51.2062141" lon="6.5619732">
<ele>0.0000000</ele>
<time>2009-09-03T04:16:32Z</time>
</trkpt>
<trkpt lat="51.2064656" lon="6.5627190">
<ele>0.0000000</ele>
<time>2009-09-03T04:16:53Z</time>
</trkpt>
<trkpt lat="51.2069147" lon="6.5635743">
<ele>0.0000000</ele>
<time>2009-09-03T04:17:21Z</time>
</trkpt>
<trkpt lat="51.2081185" lon="6.5672371">
<ele>0.0000000</ele>
<time>2009-09-03T04:19:05Z</time>
</trkpt>
<trkpt lat="51.2087293" lon="6.5697375">
<ele>0.0000000</ele>
<time>2009-09-03T04:20:12Z</time>
</trkpt>
<trkpt lat="51.2088551" lon="6.5709438">
<ele>0.0000000</ele>
<time>2009-09-03T04:20:43Z</time>
</trkpt>
<trkpt lat="51.2090170" lon="6.5718208">
<ele>0.0000000</ele>
<time>2009-09-03T04:21:06Z</time>
</trkpt>
<trkpt lat="51.2090529" lon="6.5729175">
<ele>0.0000000</ele>
<time>2009-09-03T04:21:33Z</time>
</trkpt>
<trkpt lat="51.2102566" lon="6.5732903">
<ele>0.0000000</ele>
<time>2009-09-03T04:22:22Z</time>
</trkpt>
<trkpt lat="51.2101668" lon="6.5732683">
<ele>0.0000000</ele>
<time>2009-09-03T04:22:26Z</time>
</trkpt>
<trkpt lat="51.2110472" lon="6.5737071">
<ele>0.0000000</ele>
<time>2009-09-03T04:23:03Z</time>
</trkpt>
<trkpt lat="51.2115143" lon="6.5741676">
<ele>0.0000000</ele>
<time>2009-09-03T04:23:25Z</time>
</trkpt>
<trkpt lat="51.2122149" lon="6.5750668">
<ele>0.0000000</ele>
<time>2009-09-03T04:24:01Z</time>
</trkpt>
<trkpt lat="51.2128437" lon="6.5753740">
<ele>0.0000000</ele>
<time>2009-09-03T04:24:27Z</time>
</trkpt>
<trkpt lat="51.2133828" lon="6.5754616">
<ele>0.0000000</ele>
<time>2009-09-03T04:24:49Z</time>
</trkpt>
<trkpt lat="51.2141376" lon="6.5761196">
<ele>0.0000000</ele>
<time>2009-09-03T04:25:23Z</time>
</trkpt>
<trkpt lat="51.2147484" lon="6.5763828">
<ele>0.0000000</ele>
<time>2009-09-03T04:25:49Z</time>
</trkpt>
<trkpt lat="51.2150359" lon="6.5766899">
<ele>0.0000000</ele>
<time>2009-09-03T04:26:03Z</time>
</trkpt>
<trkpt lat="51.2142633" lon="6.5789490">
<ele>0.0000000</ele>
<time>2009-09-03T04:27:07Z</time>
</trkpt>
<trkpt lat="51.2137782" lon="6.5812081">
<ele>0.0000000</ele>
<time>2009-09-03T04:28:07Z</time>
</trkpt>
<trkpt lat="51.2141915" lon="6.5821509">
<ele>0.0000000</ele>
<time>2009-09-03T04:28:36Z</time>
</trkpt>
<trkpt lat="51.2150718" lon="6.5828966">
<ele>0.0000000</ele>
<time>2009-09-03T04:29:16Z</time>
</trkpt>
<trkpt lat="51.2151975" lon="6.5831379">
<ele>0.0000000</ele>
<time>2009-09-03T04:29:24Z</time>
</trkpt>
<trkpt lat="51.2160420" lon="6.5858136">
<ele>0.0000000</ele>
<time>2009-09-03T04:30:39Z</time>
</trkpt>
<trkpt lat="51.2160420" lon="6.5858575">
<ele>0.0000000</ele>
<time>2009-09-03T04:30:40Z</time>
</trkpt>
<trkpt lat="51.2165091" lon="6.5866910">
<ele>0.0000000</ele>
<time>2009-09-03T04:31:08Z</time>
</trkpt>
<trkpt lat="51.2171380" lon="6.5874587">
<ele>0.0000000</ele>
<time>2009-09-03T04:31:40Z</time>
</trkpt>
<trkpt lat="51.2175332" lon="6.5882043">
<ele>0.0000000</ele>
<time>2009-09-03T04:32:04Z</time>
</trkpt>
<trkpt lat="51.2175691" lon="6.5882043">
<ele>0.0000000</ele>
<time>2009-09-03T04:32:06Z</time>
</trkpt>
<trkpt lat="51.2188268" lon="6.5873929">
<ele>0.0000000</ele>
<time>2009-09-03T04:33:00Z</time>
</trkpt>
<trkpt lat="51.2197973" lon="6.5869761">
<ele>0.0000000</ele>
<time>2009-09-03T04:33:40Z</time>
</trkpt>
<trkpt lat="51.2209112" lon="6.5868883">
<ele>0.0000000</ele>
<time>2009-09-03T04:34:25Z</time>
</trkpt>
<trkpt lat="51.2213963" lon="6.5849582">
<ele>0.0000000</ele>
<time>2009-09-03T04:35:17Z</time>
</trkpt>
<trkpt lat="51.2215041" lon="6.5847170">
<ele>0.0000000</ele>
<time>2009-09-03T04:35:24Z</time>
</trkpt>
<trkpt lat="51.2217017" lon="6.5845854">
<ele>0.0000000</ele>
<time>2009-09-03T04:35:33Z</time>
</trkpt>
<trkpt lat="51.2221150" lon="6.5847390">
<ele>0.0000000</ele>
<time>2009-09-03T04:35:50Z</time>
</trkpt>
<trkpt lat="51.2229234" lon="6.5851118">
<ele>0.0000000</ele>
<time>2009-09-03T04:36:24Z</time>
</trkpt>
<trkpt lat="51.2226539" lon="6.5860330">
<ele>0.0000000</ele>
<time>2009-09-03T04:36:49Z</time>
</trkpt>
<trkpt lat="51.2230671" lon="6.5860549">
<ele>0.0000000</ele>
<time>2009-09-03T04:37:06Z</time>
</trkpt>
</trkseg>
</trk>
</gpx>
